
Distance (Route):
Temperature : 16.6°C
Humidity : 0%
Pressure : 0hPa| Receiver | Frames | First received | Last received |
|---|---|---|---|
| ARGUS2 | 479 | 2026-09-02 11:06:35 | 2026-09-02 14:06:27 |
| Receiver | Date | Latitude | Longitude | Direction | Speed | Altitude | Climb | Temperature | Humidity | Pressure | Voltage | Killtimer | Uptime | BKT | XDATA |
|---|---|---|---|---|---|---|---|---|---|---|---|---|---|---|---|
| ARGUS2 | 2026-09-02 14:06:27 | 27.82557 | -83.08360 | 219° | 16km/h | 1679m | -3.1m/s | 16.6°C | 0% | 0hPa | 0V | 00:00:00 | 00:00:00 | 00:00:00 | |
| ARGUS2 | 2026-09-02 14:05:49 | 27.82667 | -83.08253 | 225° | 11km/h | 1798m | -3.2m/s | 15.9°C | 0% | 0hPa | 0V | 00:00:00 | 00:00:00 | 00:00:00 | |
| ARGUS2 | 2026-09-02 14:05:12 | 27.82726 | -83.08167 | 240° | 7km/h | 1911m | -3.2m/s | 15.4°C | 0% | 0hPa | 0V | 00:00:00 | 00:00:00 | 00:00:00 | |
| ARGUS2 | 2026-09-02 14:04:32 | 27.82787 | -83.08063 | 237° | 11km/h | 2033m | -3.0m/s | 14.5°C | 0% | 0hPa | 0V | 00:00:00 | 00:00:00 | 00:00:00 | |
| ARGUS2 | 2026-09-02 14:03:27 | 27.82873 | -83.07854 | 251° | 13km/h | 2236m | -3.0m/s | 14.1°C | 0% | 0hPa | 0V | 00:00:00 | 00:00:00 | 00:00:00 | |
| ARGUS2 | 2026-09-02 14:03:03 | 27.82895 | -83.07765 | 260° | 13km/h | 2317m | -3.3m/s | 14.0°C | 0% | 0hPa | 0V | 00:00:00 | 00:00:00 | 00:00:00 | |
| ARGUS2 | 2026-09-02 14:02:42 | 27.82899 | -83.07691 | 275° | 13km/h | 2387m | -3.3m/s | 13.9°C | 0% | 0hPa | 0V | 00:00:00 | 00:00:00 | 00:00:00 | |
| ARGUS2 | 2026-09-02 14:02:17 | 27.82899 | -83.07603 | 271° | 11km/h | 2466m | -3.3m/s | 13.7°C | 0% | 0hPa | 0V | 00:00:00 | 00:00:00 | 00:00:00 | |
| ARGUS2 | 2026-09-02 14:01:57 | 27.82897 | -83.07536 | 264° | 9km/h | 2538m | -3.3m/s | 13.2°C | 0% | 0hPa | 0V | 00:00:00 | 00:00:00 | 00:00:00 | |
| ARGUS2 | 2026-09-02 14:01:36 | 27.82901 | -83.07484 | 265° | 7km/h | 2612m | -3.4m/s | 12.5°C | 0% | 0hPa | 0V | 00:00:00 | 00:00:00 | 00:00:00 | |
| ARGUS2 | 2026-09-02 14:01:15 | 27.82913 | -83.07439 | 238° | 7km/h | 2686m | -3.5m/s | 11.9°C | 0% | 0hPa | 0V | 00:00:00 | 00:00:00 | 00:00:00 | |
| ARGUS2 | 2026-09-02 14:00:54 | 27.82931 | -83.07402 | 242° | 7km/h | 2757m | -3.3m/s | 11.7°C | 0% | 0hPa | 0V | 00:00:00 | 00:00:00 | 00:00:00 | |
| ARGUS2 | 2026-09-02 14:00:34 | 27.82945 | -83.07374 | 223° | 4km/h | 2830m | -3.5m/s | 11.3°C | 0% | 0hPa | 0V | 00:00:00 | 00:00:00 | 00:00:00 | |
| ARGUS2 | 2026-09-02 14:00:13 | 27.82958 | -83.07348 | 249° | 5km/h | 2904m | -3.5m/s | 11.0°C | 0% | 0hPa | 0V | 00:00:00 | 00:00:00 | 00:00:00 | |
| ARGUS2 | 2026-09-02 13:59:52 | 27.82965 | -83.07315 | 262° | 5km/h | 2973m | -3.3m/s | 10.9°C | 0% | 0hPa | 0V | 00:00:00 | 00:00:00 | 00:00:00 | |
| ARGUS2 | 2026-09-02 13:59:32 | 27.82977 | -83.07274 | 247° | 9km/h | 3045m | -3.5m/s | 10.7°C | 0% | 0hPa | 0V | 00:00:00 | 00:00:00 | 00:00:00 | |
| ARGUS2 | 2026-09-02 13:59:09 | 27.82989 | -83.07230 | 263° | 5km/h | 3119m | -3.3m/s | 10.5°C | 0% | 0hPa | 0V | 00:00:00 | 00:00:00 | 00:00:00 | |
| ARGUS2 | 2026-09-02 13:58:43 | 27.83005 | -83.07187 | 250° | 5km/h | 3205m | -3.3m/s | 10.5°C | 0% | 0hPa | 0V | 00:00:00 | 00:00:00 | 00:00:00 | |
| ARGUS2 | 2026-09-02 13:58:22 | 27.83011 | -83.07160 | 264° | 4km/h | 3277m | -3.3m/s | 10.3°C | 0% | 0hPa | 0V | 00:00:00 | 00:00:00 | 00:00:00 | |
| ARGUS2 | 2026-09-02 13:57:36 | 27.83012 | -83.07124 | 258° | 2km/h | 3425m | -3.3m/s | 9.3°C | 0% | 0hPa | 0V | 00:00:00 | 00:00:00 | 00:00:00 | |
| ARGUS2 | 2026-09-02 13:57:06 | 27.83015 | -83.07116 | 0° | 0km/h | 3523m | -3.4m/s | 8.6°C | 0% | 0hPa | 0V | 00:00:00 | 00:00:00 | 00:00:00 | |
| ARGUS2 | 2026-09-02 13:56:42 | 27.83020 | -83.07107 | 238° | 4km/h | 3603m | -3.3m/s | 8.0°C | 0% | 0hPa | 0V | 00:00:00 | 00:00:00 | 00:00:00 | |
| ARGUS2 | 2026-09-02 13:56:18 | 27.83031 | -83.07074 | 256° | 7km/h | 3681m | -3.3m/s | 7.6°C | 0% | 0hPa | 0V | 00:00:00 | 00:00:00 | 00:00:00 | |
| ARGUS2 | 2026-09-02 13:55:58 | 27.83040 | -83.07033 | 269° | 5km/h | 3747m | -3.5m/s | 7.3°C | 0% | 0hPa | 0V | 00:00:00 | 00:00:00 | 00:00:00 | |
| ARGUS2 | 2026-09-02 13:55:37 | 27.83044 | -83.06980 | 261° | 9km/h | 3819m | -3.4m/s | 6.8°C | 0% | 0hPa | 0V | 00:00:00 | 00:00:00 | 00:00:00 | |
| ARGUS2 | 2026-09-02 13:55:17 | 27.83052 | -83.06926 | 263° | 11km/h | 3889m | -3.5m/s | 6.5°C | 0% | 0hPa | 0V | 00:00:00 | 00:00:00 | 00:00:00 | |
| ARGUS2 | 2026-09-02 13:54:56 | 27.83066 | -83.06861 | 263° | 11km/h | 3964m | -3.5m/s | 6.0°C | 0% | 0hPa | 0V | 00:00:00 | 00:00:00 | 00:00:00 | |
| ARGUS2 | 2026-09-02 13:54:36 | 27.83072 | -83.06785 | 274° | 15km/h | 4037m | -3.7m/s | 5.5°C | 0% | 0hPa | 0V | 00:00:00 | 00:00:00 | 00:00:00 | |
| ARGUS2 | 2026-09-02 13:54:16 | 27.83070 | -83.06701 | 273° | 13km/h | 4114m | -3.8m/s | 4.9°C | 0% | 0hPa | 0V | 00:00:00 | 00:00:00 | 00:00:00 | |
| ARGUS2 | 2026-09-02 13:53:55 | 27.83062 | -83.06611 | 275° | 16km/h | 4189m | -3.7m/s | 4.4°C | 0% | 0hPa | 0V | 00:00:00 | 00:00:00 | 00:00:00 | |
| ARGUS2 | 2026-09-02 13:53:34 | 27.83063 | -83.06509 | 268° | 16km/h | 4268m | -3.8m/s | 3.9°C | 0% | 0hPa | 0V | 00:00:00 | 00:00:00 | 00:00:00 | |
| ARGUS2 | 2026-09-02 13:53:14 | 27.83072 | -83.06401 | 264° | 18km/h | 4343m | -3.8m/s | 3.4°C | 0% | 0hPa | 0V | 00:00:00 | 00:00:00 | 00:00:00 | |
| ARGUS2 | 2026-09-02 13:52:54 | 27.83084 | -83.06299 | 264° | 15km/h | 4421m | -3.8m/s | 2.8°C | 0% | 0hPa | 0V | 00:00:00 | 00:00:00 | 00:00:00 | |
| ARGUS2 | 2026-09-02 13:52:33 | 27.83101 | -83.06207 | 260° | 16km/h | 4496m | -3.7m/s | 2.1°C | 0% | 0hPa | 0V | 00:00:00 | 00:00:00 | 00:00:00 | |
| ARGUS2 | 2026-09-02 13:52:12 | 27.83113 | -83.06103 | 268° | 18km/h | 4573m | -3.8m/s | 1.4°C | 0% | 0hPa | 0V | 00:00:00 | 00:00:00 | 00:00:00 | |
| ARGUS2 | 2026-09-02 13:51:51 | 27.83116 | -83.05990 | 274° | 18km/h | 4649m | -3.7m/s | 0.8°C | 0% | 0hPa | 0V | 00:00:00 | 00:00:00 | 00:00:00 | |
| ARGUS2 | 2026-09-02 13:51:30 | 27.83102 | -83.05869 | 278° | 20km/h | 4725m | -3.6m/s | 0.5°C | 0% | 0hPa | 0V | 00:00:00 | 00:00:00 | 00:00:00 | |
| ARGUS2 | 2026-09-02 13:51:09 | 27.83094 | -83.05755 | 272° | 20km/h | 4801m | -3.7m/s | 0.2°C | 0% | 0hPa | 0V | 00:00:00 | 00:00:00 | 00:00:00 | |
| ARGUS2 | 2026-09-02 13:49:44 | 27.83100 | -83.05240 | 272° | 22km/h | 5105m | -3.9m/s | -1.1°C | 0% | 0hPa | 0V | 00:00:00 | 00:00:00 | 00:00:00 | |
| ARGUS2 | 2026-09-02 13:49:21 | 27.83107 | -83.05095 | 266° | 24km/h | 5184m | -3.6m/s | -1.3°C | 0% | 0hPa | 0V | 00:00:00 | 00:00:00 | 00:00:00 | |
| ARGUS2 | 2026-09-02 13:49:00 | 27.83114 | -83.04949 | 268° | 24km/h | 5261m | -3.4m/s | -1.7°C | 0% | 0hPa | 0V | 00:00:00 | 00:00:00 | 00:00:00 | |
| ARGUS2 | 2026-09-02 13:48:40 | 27.83125 | -83.04799 | 264° | 26km/h | 5339m | -3.9m/s | -2.3°C | 0% | 0hPa | 0V | 00:00:00 | 00:00:00 | 00:00:00 | |
| ARGUS2 | 2026-09-02 13:48:19 | 27.83149 | -83.04645 | 261° | 27km/h | 5417m | -4.0m/s | -2.8°C | 0% | 0hPa | 0V | 00:00:00 | 00:00:00 | 00:00:00 | |
| ARGUS2 | 2026-09-02 13:47:58 | 27.83182 | -83.04485 | 258° | 27km/h | 5500m | -4.0m/s | -3.5°C | 0% | 0hPa | 0V | 00:00:00 | 00:00:00 | 00:00:00 | |
| ARGUS2 | 2026-09-02 13:47:38 | 27.83211 | -83.04340 | 259° | 26km/h | 5580m | -4.0m/s | -4.3°C | 0% | 0hPa | 0V | 00:00:00 | 00:00:00 | 00:00:00 | |
| ARGUS2 | 2026-09-02 13:47:18 | 27.83243 | -83.04192 | 259° | 26km/h | 5664m | -4.1m/s | -4.9°C | 0% | 0hPa | 0V | 00:00:00 | 00:00:00 | 00:00:00 | |
| ARGUS2 | 2026-09-02 13:46:57 | 27.83260 | -83.04054 | 270° | 20km/h | 5745m | -3.8m/s | -5.5°C | 0% | 0hPa | 0V | 00:00:00 | 00:00:00 | 00:00:00 | |
| ARGUS2 | 2026-09-02 13:46:37 | 27.83243 | -83.03926 | 291° | 20km/h | 5827m | -4.0m/s | -5.9°C | 0% | 0hPa | 0V | 00:00:00 | 00:00:00 | 00:00:00 | |
| ARGUS2 | 2026-09-02 13:46:16 | 27.83196 | -83.03811 | 295° | 24km/h | 5904m | -3.9m/s | -6.4°C | 0% | 0hPa | 0V | 00:00:00 | 00:00:00 | 00:00:00 | |
| ARGUS2 | 2026-09-02 13:45:56 | 27.83135 | -83.03680 | 302° | 24km/h | 5987m | -3.8m/s | -6.7°C | 0% | 0hPa | 0V | 00:00:00 | 00:00:00 | 00:00:00 | |
| ARGUS2 | 2026-09-02 13:45:35 | 27.83075 | -83.03563 | 301° | 22km/h | 6068m | -4.0m/s | -7.2°C | 0% | 0hPa | 0V | 00:00:00 | 00:00:00 | 00:00:00 | |
| ARGUS2 | 2026-09-02 13:45:15 | 27.83026 | -83.03449 | 297° | 20km/h | 6156m | -4.2m/s | -7.5°C | 0% | 0hPa | 0V | 00:00:00 | 00:00:00 | 00:00:00 | |
| ARGUS2 | 2026-09-02 13:44:52 | 27.82981 | -83.03345 | 301° | 18km/h | 6242m | -4.0m/s | -8.1°C | 0% | 0hPa | 0V | 00:00:00 | 00:00:00 | 00:00:00 | |
| ARGUS2 | 2026-09-02 13:44:27 | 27.82930 | -83.03246 | 307° | 16km/h | 6346m | -4.2m/s | -8.7°C | 0% | 0hPa | 0V | 00:00:00 | 00:00:00 | 00:00:00 | |
| ARGUS2 | 2026-09-02 13:44:07 | 27.82901 | -83.03169 | 286° | 15km/h | 6430m | -4.0m/s | -8.4°C | 0% | 0hPa | 0V | 00:00:00 | 00:00:00 | 00:00:00 | |
| ARGUS2 | 2026-09-02 13:43:47 | 27.82881 | -83.03075 | 280° | 16km/h | 6519m | -4.3m/s | -8.9°C | 0% | 0hPa | 0V | 00:00:00 | 00:00:00 | 00:00:00 | |
| ARGUS2 | 2026-09-02 13:43:26 | 27.82874 | -83.02977 | 278° | 18km/h | 6603m | -4.4m/s | -9.5°C | 0% | 0hPa | 0V | 00:00:00 | 00:00:00 | 00:00:00 | |
| ARGUS2 | 2026-09-02 13:43:06 | 27.82854 | -83.02875 | 285° | 18km/h | 6695m | -4.3m/s | -10.3°C | 0% | 0hPa | 0V | 00:00:00 | 00:00:00 | 00:00:00 | |
| ARGUS2 | 2026-09-02 13:42:45 | 27.82834 | -83.02775 | 282° | 18km/h | 6781m | -4.3m/s | -11.1°C | 0% | 0hPa | 0V | 00:00:00 | 00:00:00 | 00:00:00 | |
| ARGUS2 | 2026-09-02 13:42:25 | 27.82821 | -83.02669 | 291° | 16km/h | 6872m | -4.2m/s | -11.7°C | 0% | 0hPa | 0V | 00:00:00 | 00:00:00 | 00:00:00 | |
| ARGUS2 | 2026-09-02 13:42:04 | 27.82793 | -83.02595 | 292° | 11km/h | 6957m | -4.2m/s | -11.4°C | 0% | 0hPa | 0V | 00:00:00 | 00:00:00 | 00:00:00 | |
| ARGUS2 | 2026-09-02 13:41:44 | 27.82779 | -83.02535 | 284° | 9km/h | 7048m | -4.2m/s | -12.1°C | 0% | 0hPa | 0V | 00:00:00 | 00:00:00 | 00:00:00 | |
| ARGUS2 | 2026-09-02 13:41:23 | 27.82762 | -83.02487 | 300° | 5km/h | 7138m | -4.2m/s | -12.5°C | 0% | 0hPa | 0V | 00:00:00 | 00:00:00 | 00:00:00 | |
| ARGUS2 | 2026-09-02 13:41:02 | 27.82751 | -83.02460 | 306° | 5km/h | 7222m | -4.2m/s | -13.1°C | 0% | 0hPa | 0V | 00:00:00 | 00:00:00 | 00:00:00 | |
| ARGUS2 | 2026-09-02 13:40:41 | 27.82730 | -83.02427 | 308° | 9km/h | 7310m | -4.1m/s | -13.8°C | 0% | 0hPa | 0V | 00:00:00 | 00:00:00 | 00:00:00 | |
| ARGUS2 | 2026-09-02 13:40:21 | 27.82697 | -83.02382 | 322° | 15km/h | 7394m | -4.0m/s | -14.3°C | 0% | 0hPa | 0V | 00:00:00 | 00:00:00 | 00:00:00 | |
| ARGUS2 | 2026-09-02 13:40:00 | 27.82631 | -83.02321 | 320° | 18km/h | 7481m | -4.2m/s | -14.8°C | 0% | 0hPa | 0V | 00:00:00 | 00:00:00 | 00:00:00 | |
| ARGUS2 | 2026-09-02 13:39:40 | 27.82551 | -83.02256 | 321° | 20km/h | 7563m | -4.1m/s | -15.3°C | 0% | 0hPa | 0V | 00:00:00 | 00:00:00 | 00:00:00 | |
| ARGUS2 | 2026-09-02 13:39:20 | 27.82468 | -83.02164 | 312° | 24km/h | 7649m | -4.1m/s | -15.5°C | 0% | 0hPa | 0V | 00:00:00 | 00:00:00 | 00:00:00 | |
| ARGUS2 | 2026-09-02 13:38:59 | 27.82393 | -83.02066 | 308° | 22km/h | 7733m | -4.4m/s | -16.1°C | 0% | 0hPa | 0V | 00:00:00 | 00:00:00 | 00:00:00 | |
| ARGUS2 | 2026-09-02 13:38:39 | 27.82332 | -83.01962 | 302° | 20km/h | 7823m | -4.2m/s | -16.5°C | 0% | 0hPa | 0V | 00:00:00 | 00:00:00 | 00:00:00 | |
| ARGUS2 | 2026-09-02 13:38:18 | 27.82287 | -83.01877 | 302° | 15km/h | 7910m | -4.2m/s | -17.1°C | 0% | 0hPa | 0V | 00:00:00 | 00:00:00 | 00:00:00 | |
| ARGUS2 | 2026-09-02 13:37:57 | 27.82247 | -83.01810 | 302° | 15km/h | 8000m | -4.4m/s | -17.9°C | 0% | 0hPa | 0V | 00:00:00 | 00:00:00 | 00:00:00 | |
| ARGUS2 | 2026-09-02 13:37:37 | 27.82214 | -83.01741 | 299° | 13km/h | 8089m | -4.5m/s | -18.7°C | 0% | 0hPa | 0V | 00:00:00 | 00:00:00 | 00:00:00 | |
| ARGUS2 | 2026-09-02 13:37:17 | 27.82185 | -83.01678 | 297° | 13km/h | 8184m | -4.7m/s | -19.3°C | 0% | 0hPa | 0V | 00:00:00 | 00:00:00 | 00:00:00 | |
| ARGUS2 | 2026-09-02 13:36:56 | 27.82162 | -83.01610 | 287° | 13km/h | 8276m | -4.6m/s | -20.1°C | 0% | 0hPa | 0V | 00:00:00 | 00:00:00 | 00:00:00 | |
| ARGUS2 | 2026-09-02 13:36:36 | 27.82140 | -83.01527 | 289° | 15km/h | 8373m | -4.8m/s | -20.9°C | 0% | 0hPa | 0V | 00:00:00 | 00:00:00 | 00:00:00 | |
| ARGUS2 | 2026-09-02 13:36:15 | 27.82119 | -83.01456 | 288° | 13km/h | 8466m | -4.7m/s | -21.8°C | 0% | 0hPa | 0V | 00:00:00 | 00:00:00 | 00:00:00 | |
| ARGUS2 | 2026-09-02 13:35:55 | 27.82088 | -83.01386 | 301° | 15km/h | 8564m | -4.8m/s | -22.5°C | 0% | 0hPa | 0V | 00:00:00 | 00:00:00 | 00:00:00 | |
| ARGUS2 | 2026-09-02 13:35:34 | 27.82051 | -83.01308 | 302° | 15km/h | 8663m | -4.7m/s | -23.2°C | 0% | 0hPa | 0V | 00:00:00 | 00:00:00 | 00:00:00 | |
| ARGUS2 | 2026-09-02 13:35:14 | 27.82016 | -83.01243 | 295° | 13km/h | 8758m | -4.8m/s | -23.9°C | 0% | 0hPa | 0V | 00:00:00 | 00:00:00 | 00:00:00 | |
| ARGUS2 | 2026-09-02 13:34:52 | 27.81998 | -83.01171 | 281° | 11km/h | 8859m | -4.6m/s | -24.1°C | 0% | 0hPa | 0V | 00:00:00 | 00:00:00 | 00:00:00 | |
| ARGUS2 | 2026-09-02 13:34:32 | 27.81995 | -83.01125 | 276° | 5km/h | 8955m | -5.1m/s | -24.8°C | 0% | 0hPa | 0V | 00:00:00 | 00:00:00 | 00:00:00 | |
| ARGUS2 | 2026-09-02 13:34:11 | 27.81995 | -83.01090 | 260° | 4km/h | 9058m | -5.0m/s | -25.7°C | 0% | 0hPa | 0V | 00:00:00 | 00:00:00 | 00:00:00 | |
| ARGUS2 | 2026-09-02 13:33:51 | 27.81989 | -83.01074 | 306° | 4km/h | 9156m | -4.9m/s | -26.3°C | 0% | 0hPa | 0V | 00:00:00 | 00:00:00 | 00:00:00 | |
| ARGUS2 | 2026-09-02 13:33:30 | 27.81974 | -83.01051 | 316° | 5km/h | 9259m | -4.9m/s | -26.9°C | 0% | 0hPa | 0V | 00:00:00 | 00:00:00 | 00:00:00 | |
| ARGUS2 | 2026-09-02 13:33:10 | 27.81953 | -83.01038 | 2° | 4km/h | 9357m | -4.8m/s | -27.6°C | 0% | 0hPa | 0V | 00:00:00 | 00:00:00 | 00:00:00 | |
| ARGUS2 | 2026-09-02 13:32:50 | 27.81941 | -83.01043 | 60° | 4km/h | 9459m | -4.8m/s | -28.4°C | 0% | 0hPa | 0V | 00:00:00 | 00:00:00 | 00:00:00 | |
| ARGUS2 | 2026-09-02 13:32:29 | 27.81936 | -83.01058 | 0° | 0km/h | 9554m | -4.9m/s | -29.2°C | 0% | 0hPa | 0V | 00:00:00 | 00:00:00 | 00:00:00 | |
| ARGUS2 | 2026-09-02 13:32:09 | 27.81935 | -83.01070 | 84° | 4km/h | 9654m | -4.8m/s | -30.2°C | 0% | 0hPa | 0V | 00:00:00 | 00:00:00 | 00:00:00 | |
| ARGUS2 | 2026-09-02 13:31:48 | 27.81938 | -83.01097 | 118° | 5km/h | 9750m | -4.8m/s | -30.9°C | 0% | 0hPa | 0V | 00:00:00 | 00:00:00 | 00:00:00 | |
| ARGUS2 | 2026-09-02 13:31:28 | 27.81955 | -83.01130 | 110° | 5km/h | 9849m | -4.8m/s | -31.7°C | 0% | 0hPa | 0V | 00:00:00 | 00:00:00 | 00:00:00 | |
| ARGUS2 | 2026-09-02 13:31:06 | 27.81958 | -83.01178 | 85° | 9km/h | 9948m | -4.8m/s | -32.6°C | 0% | 0hPa | 0V | 00:00:00 | 00:00:00 | 00:00:00 | |
| ARGUS2 | 2026-09-02 13:30:46 | 27.81928 | -83.01233 | 45° | 13km/h | 10042m | -4.8m/s | -33.2°C | 0% | 0hPa | 0V | 00:00:00 | 00:00:00 | 00:00:00 | |
| ARGUS2 | 2026-09-02 13:30:25 | 27.81880 | -83.01277 | 30° | 11km/h | 10143m | -4.6m/s | -34.0°C | 0% | 0hPa | 0V | 00:00:00 | 00:00:00 | 00:00:00 | |
| ARGUS2 | 2026-09-02 13:30:05 | 27.81820 | -83.01299 | 357° | 13km/h | 10236m | -4.7m/s | -34.7°C | 0% | 0hPa | 0V | 00:00:00 | 00:00:00 | 00:00:00 | |
| ARGUS2 | 2026-09-02 13:29:44 | 27.81745 | -83.01285 | 348° | 16km/h | 10337m | -4.9m/s | -35.4°C | 0% | 0hPa | 0V | 00:00:00 | 00:00:00 | 00:00:00 | |
| ARGUS2 | 2026-09-02 13:29:25 | 27.81660 | -83.01262 | 347° | 16km/h | 10435m | -5.0m/s | -36.3°C | 0% | 0hPa | 0V | 00:00:00 | 00:00:00 | 00:00:00 | |
| ARGUS2 | 2026-09-02 13:29:03 | 27.81580 | -83.01231 | 342° | 15km/h | 10538m | -5.1m/s | -37.1°C | 0% | 0hPa | 0V | 00:00:00 | 00:00:00 | 00:00:00 | |
| ARGUS2 | 2026-09-02 13:28:43 | 27.81511 | -83.01210 | 340° | 16km/h | 10638m | -4.9m/s | -37.9°C | 0% | 0hPa | 0V | 00:00:00 | 00:00:00 | 00:00:00 | |
| ARGUS2 | 2026-09-02 13:28:23 | 27.81413 | -83.01166 | 342° | 22km/h | 10741m | -4.8m/s | -38.6°C | 0% | 0hPa | 0V | 00:00:00 | 00:00:00 | 00:00:00 | |
| ARGUS2 | 2026-09-02 13:28:02 | 27.81307 | -83.01118 | 339° | 24km/h | 10841m | -5.0m/s | -39.1°C | 0% | 0hPa | 0V | 00:00:00 | 00:00:00 | 00:00:00 | |
| ARGUS2 | 2026-09-02 13:27:42 | 27.81182 | -83.01038 | 330° | 29km/h | 10945m | -5.2m/s | -39.8°C | 0% | 0hPa | 0V | 00:00:00 | 00:00:00 | 00:00:00 | |
| ARGUS2 | 2026-09-02 13:27:21 | 27.81045 | -83.00927 | 324° | 38km/h | 11042m | -4.8m/s | -40.5°C | 0% | 0hPa | 0V | 00:00:00 | 00:00:00 | 00:00:00 | |
| ARGUS2 | 2026-09-02 13:27:01 | 27.80886 | -83.00784 | 326° | 38km/h | 11141m | -5.1m/s | -41.0°C | 0% | 0hPa | 0V | 00:00:00 | 00:00:00 | 00:00:00 | |
| ARGUS2 | 2026-09-02 13:26:40 | 27.80725 | -83.00662 | 328° | 38km/h | 11240m | -5.1m/s | -41.9°C | 0% | 0hPa | 0V | 00:00:00 | 00:00:00 | 00:00:00 | |
| ARGUS2 | 2026-09-02 13:26:20 | 27.80553 | -83.00537 | 328° | 38km/h | 11348m | -5.3m/s | -42.8°C | 0% | 0hPa | 0V | 00:00:00 | 00:00:00 | 00:00:00 | |
| ARGUS2 | 2026-09-02 13:25:59 | 27.80389 | -83.00439 | 335° | 35km/h | 11452m | -5.3m/s | -43.6°C | 0% | 0hPa | 0V | 00:00:00 | 00:00:00 | 00:00:00 | |
| ARGUS2 | 2026-09-02 13:25:39 | 27.80219 | -83.00353 | 339° | 35km/h | 11568m | -5.6m/s | -44.4°C | 0% | 0hPa | 0V | 00:00:00 | 00:00:00 | 00:00:00 | |
| ARGUS2 | 2026-09-02 13:25:17 | 27.80048 | -83.00275 | 340° | 35km/h | 11685m | -5.6m/s | -45.3°C | 0% | 0hPa | 0V | 00:00:00 | 00:00:00 | 00:00:00 | |
| ARGUS2 | 2026-09-02 13:24:57 | 27.79873 | -83.00210 | 345° | 37km/h | 11799m | -5.9m/s | -46.3°C | 0% | 0hPa | 0V | 00:00:00 | 00:00:00 | 00:00:00 | |
| ARGUS2 | 2026-09-02 13:24:36 | 27.79683 | -83.00143 | 345° | 38km/h | 11916m | -5.4m/s | -47.3°C | 0% | 0hPa | 0V | 00:00:00 | 00:00:00 | 00:00:00 | |
| ARGUS2 | 2026-09-02 13:24:16 | 27.79493 | -83.00079 | 345° | 38km/h | 12029m | -5.7m/s | -48.4°C | 0% | 0hPa | 0V | 00:00:00 | 00:00:00 | 00:00:00 | |
| ARGUS2 | 2026-09-02 13:23:55 | 27.79292 | -83.00021 | 347° | 40km/h | 12151m | -5.9m/s | -49.5°C | 0% | 0hPa | 0V | 00:00:00 | 00:00:00 | 00:00:00 | |
| ARGUS2 | 2026-09-02 13:23:35 | 27.79089 | -82.99966 | 347° | 44km/h | 12260m | -5.3m/s | -50.4°C | 0% | 0hPa | 0V | 00:00:00 | 00:00:00 | 00:00:00 | |
| ARGUS2 | 2026-09-02 13:23:15 | 27.78848 | -82.99906 | 347° | 47km/h | 12374m | -5.5m/s | -51.2°C | 0% | 0hPa | 0V | 00:00:00 | 00:00:00 | 00:00:00 | |
| ARGUS2 | 2026-09-02 13:22:54 | 27.78608 | -82.99837 | 346° | 49km/h | 12486m | -5.7m/s | -52.1°C | 0% | 0hPa | 0V | 00:00:00 | 00:00:00 | 00:00:00 | |
| ARGUS2 | 2026-09-02 13:22:34 | 27.78343 | -82.99743 | 343° | 51km/h | 12605m | -5.7m/s | -53.0°C | 0% | 0hPa | 0V | 00:00:00 | 00:00:00 | 00:00:00 | |
| ARGUS2 | 2026-09-02 13:22:13 | 27.78097 | -82.99657 | 344° | 49km/h | 12720m | -5.8m/s | -54.0°C | 0% | 0hPa | 0V | 00:00:00 | 00:00:00 | 00:00:00 | |
| ARGUS2 | 2026-09-02 13:21:53 | 27.77860 | -82.99569 | 346° | 47km/h | 12842m | -5.9m/s | -54.8°C | 0% | 0hPa | 0V | 00:00:00 | 00:00:00 | 00:00:00 | |
| ARGUS2 | 2026-09-02 13:21:32 | 27.77641 | -82.99497 | 347° | 42km/h | 12959m | -5.9m/s | -55.7°C | 0% | 0hPa | 0V | 00:00:00 | 00:00:00 | 00:00:00 | |
| ARGUS2 | 2026-09-02 13:21:12 | 27.77440 | -82.99440 | 350° | 38km/h | 13082m | -5.8m/s | -56.5°C | 0% | 0hPa | 0V | 00:00:00 | 00:00:00 | 00:00:00 | |
| ARGUS2 | 2026-09-02 13:20:51 | 27.77266 | -82.99399 | 349° | 33km/h | 13201m | -6.1m/s | -57.4°C | 0% | 0hPa | 0V | 00:00:00 | 00:00:00 | 00:00:00 | |
| ARGUS2 | 2026-09-02 13:20:31 | 27.77102 | -82.99353 | 349° | 31km/h | 13327m | -5.9m/s | -58.4°C | 0% | 0hPa | 0V | 00:00:00 | 00:00:00 | 00:00:00 | |
| ARGUS2 | 2026-09-02 13:20:09 | 27.76928 | -82.99307 | 348° | 35km/h | 13455m | -5.8m/s | -59.4°C | 0% | 0hPa | 0V | 00:00:00 | 00:00:00 | 00:00:00 | |
| ARGUS2 | 2026-09-02 13:19:49 | 27.76751 | -82.99259 | 349° | 37km/h | 13577m | -6.0m/s | -60.4°C | 0% | 0hPa | 0V | 00:00:00 | 00:00:00 | 00:00:00 | |
| ARGUS2 | 2026-09-02 13:19:28 | 27.76557 | -82.99209 | 349° | 40km/h | 13706m | -5.9m/s | -61.5°C | 0% | 0hPa | 0V | 00:00:00 | 00:00:00 | 00:00:00 | |
| ARGUS2 | 2026-09-02 13:19:08 | 27.76351 | -82.99157 | 348° | 44km/h | 13828m | -6.2m/s | -62.5°C | 0% | 0hPa | 0V | 00:00:00 | 00:00:00 | 00:00:00 | |
| ARGUS2 | 2026-09-02 13:18:48 | 27.76112 | -82.99099 | 350° | 47km/h | 13959m | -6.3m/s | -63.6°C | 0% | 0hPa | 0V | 00:00:00 | 00:00:00 | 00:00:00 | |
| ARGUS2 | 2026-09-02 13:18:27 | 27.75870 | -82.99045 | 354° | 49km/h | 14083m | -6.2m/s | -64.5°C | 0% | 0hPa | 0V | 00:00:00 | 00:00:00 | 00:00:00 | |
| ARGUS2 | 2026-09-02 13:18:07 | 27.75642 | -82.99002 | 349° | 38km/h | 14215m | -6.2m/s | -65.0°C | 0% | 0hPa | 0V | 00:00:00 | 00:00:00 | 00:00:00 | |
| ARGUS2 | 2026-09-02 13:17:46 | 27.75475 | -82.98956 | 346° | 31km/h | 14342m | -6.3m/s | -65.8°C | 0% | 0hPa | 0V | 00:00:00 | 00:00:00 | 00:00:00 | |
| ARGUS2 | 2026-09-02 13:17:25 | 27.75330 | -82.98910 | 345° | 24km/h | 14472m | -6.2m/s | -66.8°C | 0% | 0hPa | 0V | 00:00:00 | 00:00:00 | 00:00:00 | |
| ARGUS2 | 2026-09-02 13:17:06 | 27.75222 | -82.98882 | 346° | 18km/h | 14599m | -6.3m/s | -67.7°C | 0% | 0hPa | 0V | 00:00:00 | 00:00:00 | 00:00:00 | |
| ARGUS2 | 2026-09-02 13:16:45 | 27.75146 | -82.98866 | 5° | 9km/h | 14735m | -6.5m/s | -68.6°C | 0% | 0hPa | 0V | 00:00:00 | 00:00:00 | 00:00:00 | |
| ARGUS2 | 2026-09-02 13:16:24 | 27.75158 | -82.98861 | 195° | 7km/h | 14868m | -6.6m/s | -68.4°C | 0% | 0hPa | 0V | 00:00:00 | 00:00:00 | 00:00:00 | |
| ARGUS2 | 2026-09-02 13:16:04 | 27.75200 | -82.98836 | 201° | 18km/h | 15010m | -6.7m/s | -67.3°C | 0% | 0hPa | 0V | 00:00:00 | 00:00:00 | 00:00:00 | |
| ARGUS2 | 2026-09-02 13:15:43 | 27.75279 | -82.98792 | 218° | 16km/h | 15148m | -7.2m/s | -68.0°C | 0% | 0hPa | 0V | 00:00:00 | 00:00:00 | 00:00:00 | |
| ARGUS2 | 2026-09-02 13:15:23 | 27.75339 | -82.98700 | 249° | 24km/h | 15299m | -7.3m/s | -68.6°C | 0% | 0hPa | 0V | 00:00:00 | 00:00:00 | 00:00:00 | |
| ARGUS2 | 2026-09-02 13:15:01 | 27.75356 | -82.98547 | 275° | 26km/h | 15456m | -7.7m/s | -67.5°C | 0% | 0hPa | 0V | 00:00:00 | 00:00:00 | 00:00:00 | |
| ARGUS2 | 2026-09-02 13:14:41 | 27.75360 | -82.98426 | 269° | 22km/h | 15611m | -8.0m/s | -65.6°C | 0% | 0hPa | 0V | 00:00:00 | 00:00:00 | 00:00:00 | |
| ARGUS2 | 2026-09-02 13:14:21 | 27.75336 | -82.98285 | 292° | 29km/h | 15777m | -7.9m/s | -65.8°C | 0% | 0hPa | 0V | 00:00:00 | 00:00:00 | 00:00:00 | |
| ARGUS2 | 2026-09-02 13:14:00 | 27.75270 | -82.98139 | 303° | 27km/h | 15934m | -7.8m/s | -66.4°C | 0% | 0hPa | 0V | 00:00:00 | 00:00:00 | 00:00:00 | |
| ARGUS2 | 2026-09-02 13:13:39 | 27.75194 | -82.98019 | 294° | 20km/h | 16099m | -8.0m/s | -67.0°C | 0% | 0hPa | 0V | 00:00:00 | 00:00:00 | 00:00:00 | |
| ARGUS2 | 2026-09-02 13:13:19 | 27.75210 | -82.97911 | 235° | 24km/h | 16257m | -7.8m/s | -67.3°C | 0% | 0hPa | 0V | 00:00:00 | 00:00:00 | 00:00:00 | |
| ARGUS2 | 2026-09-02 13:12:58 | 27.75326 | -82.97766 | 235° | 37km/h | 16423m | -8.0m/s | -67.9°C | 0% | 0hPa | 0V | 00:00:00 | 00:00:00 | 00:00:00 | |
| ARGUS2 | 2026-09-02 13:12:38 | 27.75410 | -82.97597 | 242° | 31km/h | 16583m | -7.8m/s | -67.9°C | 0% | 0hPa | 0V | 00:00:00 | 00:00:00 | 00:00:00 | |
| ARGUS2 | 2026-09-02 13:12:17 | 27.75522 | -82.97448 | 232° | 29km/h | 16752m | -8.2m/s | -68.3°C | 0% | 0hPa | 0V | 00:00:00 | 00:00:00 | 00:00:00 | |
| ARGUS2 | 2026-09-02 13:11:56 | 27.75598 | -82.97330 | 230° | 31km/h | 16926m | -8.4m/s | -67.6°C | 0% | 0hPa | 0V | 00:00:00 | 00:00:00 | 00:00:00 | |
| ARGUS2 | 2026-09-02 13:11:35 | 27.75715 | -82.97144 | 242° | 38km/h | 17110m | -8.4m/s | -67.8°C | 0% | 0hPa | 0V | 00:00:00 | 00:00:00 | 00:00:00 | |
| ARGUS2 | 2026-09-02 13:11:13 | 27.75783 | -82.96948 | 252° | 27km/h | 17289m | -8.7m/s | -65.5°C | 0% | 0hPa | 0V | 00:00:00 | 00:00:00 | 00:00:00 | |
| ARGUS2 | 2026-09-02 13:10:51 | 27.75843 | -82.96863 | 195° | 13km/h | 17498m | -8.8m/s | -65.7°C | 0% | 0hPa | 0V | 00:00:00 | 00:00:00 | 00:00:00 | |
| ARGUS2 | 2026-09-02 13:09:56 | 27.76018 | -82.96507 | 254° | 31km/h | 17980m | -9.2m/s | -63.8°C | 0% | 0hPa | 0V | 00:00:00 | 00:00:00 | 00:00:00 | |
| ARGUS2 | 2026-09-02 13:09:32 | 27.76092 | -82.96252 | 254° | 44km/h | 18203m | -9.3m/s | -63.6°C | 0% | 0hPa | 0V | 00:00:00 | 00:00:00 | 00:00:00 | |
| ARGUS2 | 2026-09-02 13:09:11 | 27.76135 | -82.96034 | 268° | 35km/h | 18390m | -9.6m/s | -65.2°C | 0% | 0hPa | 0V | 00:00:00 | 00:00:00 | 00:00:00 | |
| ARGUS2 | 2026-09-02 13:08:51 | 27.76132 | -82.95863 | 264° | 33km/h | 18594m | -9.9m/s | -65.3°C | 0% | 0hPa | 0V | 00:00:00 | 00:00:00 | 00:00:00 | |
| ARGUS2 | 2026-09-02 13:08:29 | 27.76139 | -82.95601 | 282° | 49km/h | 18802m | -9.8m/s | -64.6°C | 0% | 0hPa | 0V | 00:00:00 | 00:00:00 | 00:00:00 | |
| ARGUS2 | 2026-09-02 13:08:09 | 27.76071 | -82.95354 | 288° | 35km/h | 19005m | -10.3m/s | -65.0°C | 0% | 0hPa | 0V | 00:00:00 | 00:00:00 | 00:00:00 | |
| ARGUS2 | 2026-09-02 13:07:48 | 27.76040 | -82.95193 | 259° | 22km/h | 19221m | -10.3m/s | -65.2°C | 0% | 0hPa | 0V | 00:00:00 | 00:00:00 | 00:00:00 | |
| ARGUS2 | 2026-09-02 13:07:28 | 27.76066 | -82.95026 | 275° | 40km/h | 19430m | -10.6m/s | -63.8°C | 0% | 0hPa | 0V | 00:00:00 | 00:00:00 | 00:00:00 | |
| ARGUS2 | 2026-09-02 13:07:08 | 27.76008 | -82.94845 | 296° | 26km/h | 19654m | -10.8m/s | -63.4°C | 0% | 0hPa | 0V | 00:00:00 | 00:00:00 | 00:00:00 | |
| ARGUS2 | 2026-09-02 13:06:46 | 27.75973 | -82.94737 | 260° | 13km/h | 19883m | -11.0m/s | -63.1°C | 0% | 0hPa | 0V | 00:00:00 | 00:00:00 | 00:00:00 | |
| ARGUS2 | 2026-09-02 13:06:26 | 27.75968 | -82.94615 | 296° | 22km/h | 20116m | -11.4m/s | -63.2°C | 0% | 0hPa | 0V | 00:00:00 | 00:00:00 | 00:00:00 | |
| ARGUS2 | 2026-09-02 13:06:03 | 27.75995 | -82.94551 | 224° | 26km/h | 20366m | -11.6m/s | -61.0°C | 0% | 0hPa | 0V | 00:00:00 | 00:00:00 | 00:00:00 | |
| ARGUS2 | 2026-09-02 13:05:42 | 27.76114 | -82.94396 | 229° | 46km/h | 20609m | -11.7m/s | -60.0°C | 0% | 0hPa | 0V | 00:00:00 | 00:00:00 | 00:00:00 | |
| ARGUS2 | 2026-09-02 13:05:22 | 27.76251 | -82.94174 | 254° | 38km/h | 20858m | -11.7m/s | -60.1°C | 0% | 0hPa | 0V | 00:00:00 | 00:00:00 | 00:00:00 | |
| ARGUS2 | 2026-09-02 13:05:01 | 27.76365 | -82.93973 | 235° | 51km/h | 21111m | -12.1m/s | -59.7°C | 0% | 0hPa | 0V | 00:00:00 | 00:00:00 | 00:00:00 | |
| ARGUS2 | 2026-09-02 13:04:41 | 27.76464 | -82.93689 | 261° | 46km/h | 21355m | -12.4m/s | -58.9°C | 0% | 0hPa | 0V | 00:00:00 | 00:00:00 | 00:00:00 | |
| ARGUS2 | 2026-09-02 13:04:19 | 27.76548 | -82.93396 | 255° | 57km/h | 21615m | -12.4m/s | -58.2°C | 0% | 0hPa | 0V | 00:00:00 | 00:00:00 | 00:00:00 | |
| ARGUS2 | 2026-09-02 13:03:59 | 27.76568 | -82.93091 | 278° | 51km/h | 21868m | -12.6m/s | -58.5°C | 0% | 0hPa | 0V | 00:00:00 | 00:00:00 | 00:00:00 | |
| ARGUS2 | 2026-09-02 13:03:39 | 27.76579 | -82.92801 | 280° | 42km/h | 22141m | -13.0m/s | -57.3°C | 0% | 0hPa | 0V | 00:00:00 | 00:00:00 | 00:00:00 | |
| ARGUS2 | 2026-09-02 13:03:18 | 27.76518 | -82.92555 | 290° | 44km/h | 22408m | -13.3m/s | -57.7°C | 0% | 0hPa | 0V | 00:00:00 | 00:00:00 | 00:00:00 | |
| ARGUS2 | 2026-09-02 13:02:57 | 27.76462 | -82.92360 | 287° | 35km/h | 22695m | -13.8m/s | -55.9°C | 0% | 0hPa | 0V | 00:00:00 | 00:00:00 | 00:00:00 | |
| ARGUS2 | 2026-09-02 13:02:37 | 27.76373 | -82.92181 | 292° | 31km/h | 22974m | -13.7m/s | -56.7°C | 0% | 0hPa | 0V | 00:00:00 | 00:00:00 | 00:00:00 | |
| ARGUS2 | 2026-09-02 13:02:17 | 27.76313 | -82.91997 | 281° | 31km/h | 23272m | -14.4m/s | -55.9°C | 0% | 0hPa | 0V | 00:00:00 | 00:00:00 | 00:00:00 | |
| ARGUS2 | 2026-09-02 13:01:55 | 27.76287 | -82.91779 | 276° | 31km/h | 23582m | -15.0m/s | -54.8°C | 0% | 0hPa | 0V | 00:00:00 | 00:00:00 | 00:00:00 | |
| ARGUS2 | 2026-09-02 13:01:34 | 27.76260 | -82.91595 | 284° | 27km/h | 23904m | -15.5m/s | -55.4°C | 0% | 0hPa | 0V | 00:00:00 | 00:00:00 | 00:00:00 | |
| ARGUS2 | 2026-09-02 13:01:08 | 27.76246 | -82.91479 | 247° | 22km/h | 24334m | -16.2m/s | -55.5°C | 0% | 0hPa | 0V | 00:00:00 | 00:00:00 | 00:00:00 | |
| ARGUS2 | 2026-09-02 13:00:47 | 27.76321 | -82.91295 | 253° | 44km/h | 24667m | -17.0m/s | -55.2°C | 0% | 0hPa | 0V | 00:00:00 | 00:00:00 | 00:00:00 | |
| ARGUS2 | 2026-09-02 13:00:27 | 27.76384 | -82.91014 | 255° | 51km/h | 25029m | -17.5m/s | -53.9°C | 0% | 0hPa | 0V | 00:00:00 | 00:00:00 | 00:00:00 | |
| ARGUS2 | 2026-09-02 13:00:06 | 27.76466 | -82.90711 | 259° | 51km/h | 25384m | -18.0m/s | -51.9°C | 0% | 0hPa | 0V | 00:00:00 | 00:00:00 | 00:00:00 | |
| ARGUS2 | 2026-09-02 12:59:46 | 27.76512 | -82.90347 | 269° | 55km/h | 25767m | -18.5m/s | -51.3°C | 0% | 0hPa | 0V | 00:00:00 | 00:00:00 | 00:00:00 | |
| ARGUS2 | 2026-09-02 12:59:24 | 27.76508 | -82.90021 | 285° | 51km/h | 26155m | -18.7m/s | -50.9°C | 0% | 0hPa | 0V | 00:00:00 | 00:00:00 | 00:00:00 | |
| ARGUS2 | 2026-09-02 12:59:04 | 27.76497 | -82.89703 | 270° | 62km/h | 26532m | -19.0m/s | -50.0°C | 0% | 0hPa | 0V | 00:00:00 | 00:00:00 | 00:00:00 | |
| ARGUS2 | 2026-09-02 12:58:44 | 27.76501 | -82.89351 | 266° | 47km/h | 26936m | -19.4m/s | -48.5°C | 0% | 0hPa | 0V | 00:00:00 | 00:00:00 | 00:00:00 | |
| ARGUS2 | 2026-09-02 12:58:23 | 27.76577 | -82.89114 | 239° | 47km/h | 27338m | -20.6m/s | -46.3°C | 0% | 0hPa | 0V | 00:00:00 | 00:00:00 | 00:00:00 | |
| ARGUS2 | 2026-09-02 12:58:02 | 27.76729 | -82.88798 | 255° | 66km/h | 27778m | -21.6m/s | -46.0°C | 0% | 0hPa | 0V | 00:00:00 | 00:00:00 | 00:00:00 | |
| ARGUS2 | 2026-09-02 12:57:43 | 27.76846 | -82.88465 | 249° | 53km/h | 28222m | -22.7m/s | -45.3°C | 0% | 0hPa | 0V | 00:00:00 | 00:00:00 | 00:00:00 | |
| ARGUS2 | 2026-09-02 12:57:22 | 27.76915 | -82.88152 | 260° | 57km/h | 28716m | -24.2m/s | -44.8°C | 0% | 0hPa | 0V | 00:00:00 | 00:00:00 | 00:00:00 | |
| ARGUS2 | 2026-09-02 12:57:02 | 27.76965 | -82.87862 | 265° | 47km/h | 29208m | -25.0m/s | -44.0°C | 0% | 0hPa | 0V | 00:00:00 | 00:00:00 | 00:00:00 | |
| ARGUS2 | 2026-09-02 12:56:41 | 27.77014 | -82.87606 | 249° | 47km/h | 29749m | -25.8m/s | -45.1°C | 0% | 0hPa | 0V | 00:00:00 | 00:00:00 | 00:00:00 | |
| ARGUS2 | 2026-09-02 12:56:20 | 27.77088 | -82.87256 | 268° | 69km/h | 30270m | -26.2m/s | -43.8°C | 0% | 0hPa | 0V | 00:00:00 | 00:00:00 | 00:00:00 | |
| ARGUS2 | 2026-09-02 12:56:00 | 27.77039 | -82.86869 | 289° | 64km/h | 30820m | -26.3m/s | -44.8°C | 0% | 0hPa | 0V | 00:00:00 | 00:00:00 | 00:00:00 | |
| ARGUS2 | 2026-09-02 12:55:39 | 27.76960 | -82.86506 | 285° | 60km/h | 31354m | -27.0m/s | -42.3°C | 0% | 0hPa | 0V | 00:00:00 | 00:00:00 | 00:00:00 | |
| ARGUS2 | 2026-09-02 12:55:19 | 27.76872 | -82.86166 | 285° | 64km/h | 31939m | -28.4m/s | -38.8°C | 0% | 0hPa | 0V | 00:00:00 | 00:00:00 | 00:00:00 | |
| ARGUS2 | 2026-09-02 12:54:57 | 27.76813 | -82.85827 | 269° | 42km/h | 32541m | -27.6m/s | -37.1°C | 0% | 0hPa | 0V | 00:00:00 | 00:00:00 | 00:00:00 | |
| ARGUS2 | 2026-09-02 12:54:36 | 27.76725 | -82.85656 | 288° | 20km/h | 33124m | -27.6m/s | -37.1°C | 0% | 0hPa | 0V | 00:00:00 | 00:00:00 | 00:00:00 | |
| ARGUS2 | 2026-09-02 12:54:16 | 27.76691 | -82.85429 | 294° | 57km/h | 33730m | -29.6m/s | -38.2°C | 0% | 0hPa | 0V | 00:00:00 | 00:00:00 | 00:00:00 | |
| ARGUS2 | 2026-09-02 12:53:55 | 27.76571 | -82.85221 | 252° | 33km/h | 34473m | -44.7m/s | -35.7°C | 0% | 0hPa | 0V | 00:00:00 | 00:00:00 | 00:00:00 | |
| ARGUS2 | 2026-09-02 12:53:32 | 27.76495 | -82.85059 | 361° | 84km/h | 34574m | 0.3m/s | -35.9°C | 0% | 0hPa | 0V | 00:00:00 | 00:00:00 | 00:00:00 | |
| ARGUS2 | 2026-09-02 12:53:10 | 27.76413 | -82.84908 | 291° | 64km/h | 34440m | 2.8m/s | -36.6°C | 0% | 0hPa | 0V | 00:00:00 | 00:00:00 | 00:00:00 | |
| ARGUS2 | 2026-09-02 12:52:49 | 27.76279 | -82.84699 | 341° | 29km/h | 34303m | 3.5m/s | -37.8°C | 0% | 0hPa | 0V | 00:00:00 | 00:00:00 | 00:00:00 | |
| ARGUS2 | 2026-09-02 12:52:29 | 27.76221 | -82.84452 | 285° | 69km/h | 34177m | 5.4m/s | -37.7°C | 0% | 0hPa | 0V | 00:00:00 | 00:00:00 | 00:00:00 | |
| ARGUS2 | 2026-09-02 12:52:08 | 27.76122 | -82.84246 | 341° | 35km/h | 34061m | 2.9m/s | -38.2°C | 0% | 0hPa | 0V | 00:00:00 | 00:00:00 | 00:00:00 | |
| ARGUS2 | 2026-09-02 12:51:48 | 27.76078 | -82.84057 | 274° | 68km/h | 33941m | 4.3m/s | -39.0°C | 0% | 0hPa | 0V | 00:00:00 | 00:00:00 | 00:00:00 | |
| ARGUS2 | 2026-09-02 12:51:27 | 27.75982 | -82.83837 | 211° | 7km/h | 33828m | 0.8m/s | -39.4°C | 0% | 0hPa | 0V | 00:00:00 | 00:00:00 | 00:00:00 | |
| ARGUS2 | 2026-09-02 12:51:07 | 27.75923 | -82.83563 | 319° | 58km/h | 33708m | -0.2m/s | -39.3°C | 0% | 0hPa | 0V | 00:00:00 | 00:00:00 | 00:00:00 | |
| ARGUS2 | 2026-09-02 12:50:45 | 27.75906 | -82.83333 | 277° | 71km/h | 33577m | 7.8m/s | -39.0°C | 0% | 0hPa | 0V | 00:00:00 | 00:00:00 | 00:00:00 | |
| ARGUS2 | 2026-09-02 12:50:24 | 27.75877 | -82.83162 | 154° | 37km/h | 33444m | 5.8m/s | -38.8°C | 0% | 0hPa | 0V | 00:00:00 | 00:00:00 | 00:00:00 | |
| ARGUS2 | 2026-09-02 12:49:42 | 27.75776 | -82.82872 | 68° | 37km/h | 33152m | 5.2m/s | -37.7°C | 0% | 0hPa | 0V | 00:00:00 | 00:00:00 | 00:00:00 | |
| ARGUS2 | 2026-09-02 12:49:21 | 27.75707 | -82.82765 | 309° | 86km/h | 33013m | 5.7m/s | -37.6°C | 0% | 0hPa | 0V | 00:00:00 | 00:00:00 | 00:00:00 | |
| ARGUS2 | 2026-09-02 12:49:01 | 27.75572 | -82.82638 | 232° | 42km/h | 32864m | 3.7m/s | -37.4°C | 0% | 0hPa | 0V | 00:00:00 | 00:00:00 | 00:00:00 | |
| ARGUS2 | 2026-09-02 12:48:40 | 27.75501 | -82.82410 | 295° | 60km/h | 32708m | 1.8m/s | -37.6°C | 0% | 0hPa | 0V | 00:00:00 | 00:00:00 | 00:00:00 | |
| ARGUS2 | 2026-09-02 12:48:20 | 27.75434 | -82.82220 | 226° | 11km/h | 32562m | 2.9m/s | -38.0°C | 0% | 0hPa | 0V | 00:00:00 | 00:00:00 | 00:00:00 | |
| ARGUS2 | 2026-09-02 12:48:00 | 27.75322 | -82.81923 | 356° | 15km/h | 32404m | 11.6m/s | -38.9°C | 0% | 0hPa | 0V | 00:00:00 | 00:00:00 | 00:00:00 | |
| ARGUS2 | 2026-09-02 12:47:40 | 27.75309 | -82.81626 | 279° | 97km/h | 32272m | 11.1m/s | -38.3°C | 0% | 0hPa | 0V | 00:00:00 | 00:00:00 | 00:00:00 | |
| ARGUS2 | 2026-09-02 12:47:19 | 27.75241 | -82.81251 | 247° | 102km/h | 32122m | 8.7m/s | -38.4°C | 0% | 0hPa | 0V | 00:00:00 | 00:00:00 | 00:00:00 | |
| ARGUS2 | 2026-09-02 12:46:58 | 27.75166 | -82.80899 | 343° | 31km/h | 31993m | 3.2m/s | -38.6°C | 0% | 0hPa | 0V | 00:00:00 | 00:00:00 | 00:00:00 | |
| ARGUS2 | 2026-09-02 12:46:38 | 27.75100 | -82.80554 | 311° | 93km/h | 31868m | 2.5m/s | -40.3°C | 0% | 0hPa | 0V | 00:00:00 | 00:00:00 | 00:00:00 | |
| ARGUS2 | 2026-09-02 12:46:17 | 27.75037 | -82.80285 | 280° | 86km/h | 31750m | 9.2m/s | -40.9°C | 0% | 0hPa | 0V | 00:00:00 | 00:00:00 | 00:00:00 | |
| ARGUS2 | 2026-09-02 12:45:57 | 27.74893 | -82.80052 | 259° | 68km/h | 31623m | 6.6m/s | -41.3°C | 0% | 0hPa | 0V | 00:00:00 | 00:00:00 | 00:00:00 | |
| ARGUS2 | 2026-09-02 12:45:36 | 27.74690 | -82.79815 | 8° | 29km/h | 31497m | 1.0m/s | -40.9°C | 0% | 0hPa | 0V | 00:00:00 | 00:00:00 | 00:00:00 | |
| ARGUS2 | 2026-09-02 12:45:16 | 27.74565 | -82.79543 | 314° | 75km/h | 31365m | 8.1m/s | -40.9°C | 0% | 0hPa | 0V | 00:00:00 | 00:00:00 | 00:00:00 | |
| ARGUS2 | 2026-09-02 12:44:55 | 27.74503 | -82.79258 | 281° | 106km/h | 31228m | 7.9m/s | -41.0°C | 0% | 0hPa | 0V | 00:00:00 | 00:00:00 | 00:00:00 | |
| ARGUS2 | 2026-09-02 12:44:33 | 27.74479 | -82.78908 | 272° | 97km/h | 31085m | 10.0m/s | -40.9°C | 0% | 0hPa | 0V | 00:00:00 | 00:00:00 | 00:00:00 | |
| ARGUS2 | 2026-09-02 12:44:12 | 27.74372 | -82.78571 | 252° | 35km/h | 30950m | 12.7m/s | -41.6°C | 0% | 0hPa | 0V | 00:00:00 | 00:00:00 | 00:00:00 | |
| ARGUS2 | 2026-09-02 12:43:52 | 27.74322 | -82.78184 | 256° | 15km/h | 30807m | 0.1m/s | -42.3°C | 0% | 0hPa | 0V | 00:00:00 | 00:00:00 | 00:00:00 | |
| ARGUS2 | 2026-09-02 12:43:31 | 27.74295 | -82.77836 | 299° | 99km/h | 30673m | 2.8m/s | -42.6°C | 0% | 0hPa | 0V | 00:00:00 | 00:00:00 | 00:00:00 | |
| ARGUS2 | 2026-09-02 12:43:11 | 27.74244 | -82.77543 | 276° | 75km/h | 30538m | 10.8m/s | -42.4°C | 0% | 0hPa | 0V | 00:00:00 | 00:00:00 | 00:00:00 | |
| ARGUS2 | 2026-09-02 12:42:50 | 27.74191 | -82.77222 | 251° | 46km/h | 30408m | 15.6m/s | -41.9°C | 0% | 0hPa | 0V | 00:00:00 | 00:00:00 | 00:00:00 | |
| ARGUS2 | 2026-09-02 12:42:30 | 27.74210 | -82.76854 | 289° | 80km/h | 30275m | 6.7m/s | -41.7°C | 0% | 0hPa | 0V | 00:00:00 | 00:00:00 | 00:00:00 | |
| ARGUS2 | 2026-09-02 12:42:09 | 27.74222 | -82.76473 | 257° | 97km/h | 30157m | 4.3m/s | -41.6°C | 0% | 0hPa | 0V | 00:00:00 | 00:00:00 | 00:00:00 | |
| ARGUS2 | 2026-09-02 12:41:48 | 27.74264 | -82.76100 | 235° | 44km/h | 30041m | 7.1m/s | -42.0°C | 0% | 0hPa | 0V | 00:00:00 | 00:00:00 | 00:00:00 | |
| ARGUS2 | 2026-09-02 12:41:28 | 27.74385 | -82.75725 | 291° | 44km/h | 29923m | 2.0m/s | -43.0°C | 0% | 0hPa | 0V | 00:00:00 | 00:00:00 | 00:00:00 | |
| ARGUS2 | 2026-09-02 12:41:07 | 27.74492 | -82.75411 | 251° | 93km/h | 29809m | 2.1m/s | -43.7°C | 0% | 0hPa | 0V | 00:00:00 | 00:00:00 | 00:00:00 | |
| ARGUS2 | 2026-09-02 12:40:47 | 27.74564 | -82.75168 | 220° | 55km/h | 29679m | 9.9m/s | -44.0°C | 0% | 0hPa | 0V | 00:00:00 | 00:00:00 | 00:00:00 | |
| ARGUS2 | 2026-09-02 12:40:26 | 27.74634 | -82.74961 | 226° | 2km/h | 29547m | 5.4m/s | -44.2°C | 0% | 0hPa | 0V | 00:00:00 | 00:00:00 | 00:00:00 | |
| ARGUS2 | 2026-09-02 12:40:05 | 27.74707 | -82.74746 | 250° | 49km/h | 29411m | 4.5m/s | -43.7°C | 0% | 0hPa | 0V | 00:00:00 | 00:00:00 | 00:00:00 | |
| ARGUS2 | 2026-09-02 12:39:44 | 27.74700 | -82.74522 | 270° | 75km/h | 29267m | 11.9m/s | -43.9°C | 0% | 0hPa | 0V | 00:00:00 | 00:00:00 | 00:00:00 | |
| ARGUS2 | 2026-09-02 12:39:23 | 27.74743 | -82.74273 | 269° | 24km/h | 29125m | 4.0m/s | -44.0°C | 0% | 0hPa | 0V | 00:00:00 | 00:00:00 | 00:00:00 | |
| ARGUS2 | 2026-09-02 12:39:03 | 27.74771 | -82.73983 | 276° | 29km/h | 28973m | 12.0m/s | -44.5°C | 0% | 0hPa | 0V | 00:00:00 | 00:00:00 | 00:00:00 | |
| ARGUS2 | 2026-09-02 12:38:41 | 27.74820 | -82.73694 | 248° | 91km/h | 28823m | 5.2m/s | -45.1°C | 0% | 0hPa | 0V | 00:00:00 | 00:00:00 | 00:00:00 | |
| ARGUS2 | 2026-09-02 12:38:21 | 27.74849 | -82.73396 | 255° | 29km/h | 28685m | 4.5m/s | -45.7°C | 0% | 0hPa | 0V | 00:00:00 | 00:00:00 | 00:00:00 | |
| ARGUS2 | 2026-09-02 12:38:01 | 27.74886 | -82.73066 | 293° | 33km/h | 28538m | 10.3m/s | -46.2°C | 0% | 0hPa | 0V | 00:00:00 | 00:00:00 | 00:00:00 | |
| ARGUS2 | 2026-09-02 12:37:40 | 27.74950 | -82.72780 | 244° | 77km/h | 28408m | 5.1m/s | -46.4°C | 0% | 0hPa | 0V | 00:00:00 | 00:00:00 | 00:00:00 | |
| ARGUS2 | 2026-09-02 12:37:20 | 27.75028 | -82.72455 | 245° | 82km/h | 28272m | 7.6m/s | -46.1°C | 0% | 0hPa | 0V | 00:00:00 | 00:00:00 | 00:00:00 | |
| ARGUS2 | 2026-09-02 12:36:59 | 27.75140 | -82.72114 | 247° | 62km/h | 28151m | 8.6m/s | -46.4°C | 0% | 0hPa | 0V | 00:00:00 | 00:00:00 | 00:00:00 | |
| ARGUS2 | 2026-09-02 12:36:39 | 27.75235 | -82.71726 | 287° | 71km/h | 28028m | 4.0m/s | -46.6°C | 0% | 0hPa | 0V | 00:00:00 | 00:00:00 | 00:00:00 | |
| ARGUS2 | 2026-09-02 12:36:18 | 27.75308 | -82.71332 | 256° | 69km/h | 27915m | 6.1m/s | -47.3°C | 0% | 0hPa | 0V | 00:00:00 | 00:00:00 | 00:00:00 | |
| ARGUS2 | 2026-09-02 12:35:58 | 27.75407 | -82.70930 | 266° | 62km/h | 27788m | 5.6m/s | -47.3°C | 0% | 0hPa | 0V | 00:00:00 | 00:00:00 | 00:00:00 | |
| ARGUS2 | 2026-09-02 12:35:36 | 27.75521 | -82.70582 | 261° | 66km/h | 27672m | 7.7m/s | -47.5°C | 0% | 0hPa | 0V | 00:00:00 | 00:00:00 | 00:00:00 | |
| ARGUS2 | 2026-09-02 12:35:15 | 27.75670 | -82.70286 | 235° | 53km/h | 27547m | 6.5m/s | -47.2°C | 0% | 0hPa | 0V | 00:00:00 | 00:00:00 | 00:00:00 | |
| ARGUS2 | 2026-09-02 12:34:55 | 27.75758 | -82.70014 | 252° | 40km/h | 27423m | 8.5m/s | -47.4°C | 0% | 0hPa | 0V | 00:00:00 | 00:00:00 | 00:00:00 | |
| ARGUS2 | 2026-09-02 12:34:34 | 27.75802 | -82.69817 | 258° | 29km/h | 27294m | 7.0m/s | -47.4°C | 0% | 0hPa | 0V | 00:00:00 | 00:00:00 | 00:00:00 | |
| ARGUS2 | 2026-09-02 12:34:14 | 27.75811 | -82.69554 | 314° | 49km/h | 27175m | 8.5m/s | -47.1°C | 0% | 0hPa | 0V | 00:00:00 | 00:00:00 | 00:00:00 | |
| ARGUS2 | 2026-09-02 12:33:54 | 27.75821 | -82.69287 | 264° | 55km/h | 27040m | 6.4m/s | -47.8°C | 0% | 0hPa | 0V | 00:00:00 | 00:00:00 | 00:00:00 | |
| ARGUS2 | 2026-09-02 12:33:32 | 27.75769 | -82.69019 | 280° | 62km/h | 26907m | 3.1m/s | -48.7°C | 0% | 0hPa | 0V | 00:00:00 | 00:00:00 | 00:00:00 | |
| ARGUS2 | 2026-09-02 12:33:11 | 27.75704 | -82.68697 | 253° | 80km/h | 26773m | 4.1m/s | -48.8°C | 0% | 0hPa | 0V | 00:00:00 | 00:00:00 | 00:00:00 | |
| ARGUS2 | 2026-09-02 12:32:50 | 27.75687 | -82.68340 | 264° | 77km/h | 26650m | 1.1m/s | -48.7°C | 0% | 0hPa | 0V | 00:00:00 | 00:00:00 | 00:00:00 | |
| ARGUS2 | 2026-09-02 12:32:30 | 27.75673 | -82.67970 | 279° | 58km/h | 26528m | 9.3m/s | -48.7°C | 0% | 0hPa | 0V | 00:00:00 | 00:00:00 | 00:00:00 | |
| ARGUS2 | 2026-09-02 12:32:09 | 27.75677 | -82.67615 | 258° | 64km/h | 26404m | 6.2m/s | -49.2°C | 0% | 0hPa | 0V | 00:00:00 | 00:00:00 | 00:00:00 | |
| ARGUS2 | 2026-09-02 12:31:49 | 27.75693 | -82.67287 | 241° | 73km/h | 26285m | 3.6m/s | -49.9°C | 0% | 0hPa | 0V | 00:00:00 | 00:00:00 | 00:00:00 | |
| ARGUS2 | 2026-09-02 12:31:29 | 27.75709 | -82.66983 | 248° | 38km/h | 26163m | 2.5m/s | -50.2°C | 0% | 0hPa | 0V | 00:00:00 | 00:00:00 | 00:00:00 | |
| ARGUS2 | 2026-09-02 12:31:08 | 27.75690 | -82.66710 | 254° | 68km/h | 26040m | 4.1m/s | -50.4°C | 0% | 0hPa | 0V | 00:00:00 | 00:00:00 | 00:00:00 | |
| ARGUS2 | 2026-09-02 12:30:47 | 27.75722 | -82.66409 | 261° | 53km/h | 25917m | 8.1m/s | 0°C | 0% | 0hPa | 0V | 00:00:00 | 00:00:00 | 00:00:00 | |
| ARGUS2 | 2026-09-02 12:30:26 | 27.75768 | -82.66076 | 287° | 60km/h | 25782m | 3.6m/s | -51.5°C | 0% | 0hPa | 0V | 00:00:00 | 00:00:00 | 00:00:00 | |
| ARGUS2 | 2026-09-02 12:30:04 | 27.75830 | -82.65726 | 271° | 69km/h | 25655m | 4.7m/s | -51.7°C | 0% | 0hPa | 0V | 00:00:00 | 00:00:00 | 00:00:00 | |
| ARGUS2 | 2026-09-02 12:29:44 | 27.75921 | -82.65385 | 269° | 68km/h | 25538m | 4.2m/s | -52.1°C | 0% | 0hPa | 0V | 00:00:00 | 00:00:00 | 00:00:00 | |
| ARGUS2 | 2026-09-02 12:29:24 | 27.76011 | -82.65085 | 252° | 75km/h | 25415m | 6.5m/s | -52.9°C | 0% | 0hPa | 0V | 00:00:00 | 00:00:00 | 00:00:00 | |
| ARGUS2 | 2026-09-02 12:29:03 | 27.76135 | -82.64808 | 269° | 64km/h | 25299m | 4.8m/s | -53.6°C | 0% | 0hPa | 0V | 00:00:00 | 00:00:00 | 00:00:00 | |
| ARGUS2 | 2026-09-02 12:28:22 | 27.76408 | -82.64145 | 233° | 68km/h | 25066m | 8.3m/s | -54.8°C | 0% | 0hPa | 0V | 00:00:00 | 00:00:00 | 00:00:00 | |
| ARGUS2 | 2026-09-02 12:27:41 | 27.76607 | -82.63577 | 234° | 60km/h | 24824m | 4.6m/s | -55.5°C | 0% | 0hPa | 0V | 00:00:00 | 00:00:00 | 00:00:00 | |
| ARGUS2 | 2026-09-02 12:27:21 | 27.76699 | -82.63326 | 219° | 38km/h | 24704m | 3.4m/s | -56.1°C | 0% | 0hPa | 0V | 00:00:00 | 00:00:00 | 00:00:00 | |
| ARGUS2 | 2026-09-02 12:26:59 | 27.76806 | -82.63140 | 221° | 46km/h | 24576m | 4.7m/s | -56.4°C | 0% | 0hPa | 0V | 00:00:00 | 00:00:00 | 00:00:00 | |
| ARGUS2 | 2026-09-02 12:26:39 | 27.76880 | -82.63031 | 182° | 33km/h | 24449m | 3.4m/s | -56.0°C | 0% | 0hPa | 0V | 00:00:00 | 00:00:00 | 00:00:00 | |
| ARGUS2 | 2026-09-02 12:26:18 | 27.76907 | -82.62950 | 268° | 15km/h | 24314m | 7.6m/s | -56.3°C | 0% | 0hPa | 0V | 00:00:00 | 00:00:00 | 00:00:00 | |
| ARGUS2 | 2026-09-02 12:25:58 | 27.76838 | -82.62912 | 342° | 24km/h | 24188m | 7.5m/s | -56.0°C | 0% | 0hPa | 0V | 00:00:00 | 00:00:00 | 00:00:00 | |
| ARGUS2 | 2026-09-02 12:25:38 | 27.76731 | -82.62832 | 295° | 29km/h | 24055m | 6.6m/s | -55.4°C | 0% | 0hPa | 0V | 00:00:00 | 00:00:00 | 00:00:00 | |
| ARGUS2 | 2026-09-02 12:25:17 | 27.76640 | -82.62725 | 319° | 24km/h | 23940m | 4.8m/s | -55.1°C | 0% | 0hPa | 0V | 00:00:00 | 00:00:00 | 00:00:00 | |
| ARGUS2 | 2026-09-02 12:24:57 | 27.76502 | -82.62580 | 321° | 60km/h | 23812m | 5.8m/s | -54.4°C | 0% | 0hPa | 0V | 00:00:00 | 00:00:00 | 00:00:00 | |
| ARGUS2 | 2026-09-02 12:24:36 | 27.76378 | -82.62415 | 306° | 37km/h | 23685m | 7.6m/s | -53.9°C | 0% | 0hPa | 0V | 00:00:00 | 00:00:00 | 00:00:00 | |
| ARGUS2 | 2026-09-02 12:24:16 | 27.76297 | -82.62247 | 271° | 22km/h | 23559m | 6.4m/s | -54.1°C | 0% | 0hPa | 0V | 00:00:00 | 00:00:00 | 00:00:00 | |
| ARGUS2 | 2026-09-02 12:23:55 | 27.76239 | -82.62067 | 290° | 42km/h | 23442m | 5.0m/s | -54.4°C | 0% | 0hPa | 0V | 00:00:00 | 00:00:00 | 00:00:00 | |
| ARGUS2 | 2026-09-02 12:23:34 | 27.76160 | -82.61845 | 317° | 53km/h | 23320m | 4.3m/s | -55.6°C | 0% | 0hPa | 0V | 00:00:00 | 00:00:00 | 00:00:00 | |
| ARGUS2 | 2026-09-02 12:23:14 | 27.76067 | -82.61663 | 295° | 47km/h | 23192m | 6.8m/s | -56.0°C | 0% | 0hPa | 0V | 00:00:00 | 00:00:00 | 00:00:00 | |
| ARGUS2 | 2026-09-02 12:22:54 | 27.75956 | -82.61469 | 280° | 35km/h | 23071m | 4.8m/s | -56.6°C | 0% | 0hPa | 0V | 00:00:00 | 00:00:00 | 00:00:00 | |
| ARGUS2 | 2026-09-02 12:22:34 | 27.75868 | -82.61272 | 302° | 53km/h | 22960m | 7.6m/s | -56.3°C | 0% | 0hPa | 0V | 00:00:00 | 00:00:00 | 00:00:00 | |
| ARGUS2 | 2026-09-02 12:22:13 | 27.75738 | -82.61046 | 295° | 60km/h | 22837m | 4.6m/s | -56.1°C | 0% | 0hPa | 0V | 00:00:00 | 00:00:00 | 00:00:00 | |
| ARGUS2 | 2026-09-02 12:21:51 | 27.75618 | -82.60816 | 293° | 33km/h | 22725m | 5.7m/s | -55.9°C | 0% | 0hPa | 0V | 00:00:00 | 00:00:00 | 00:00:00 | |
| ARGUS2 | 2026-09-02 12:21:31 | 27.75578 | -82.60614 | 297° | 31km/h | 22622m | 7.2m/s | -56.1°C | 0% | 0hPa | 0V | 00:00:00 | 00:00:00 | 00:00:00 | |
| ARGUS2 | 2026-09-02 12:21:10 | 27.75501 | -82.60406 | 298° | 44km/h | 22513m | 8.0m/s | -57.0°C | 0% | 0hPa | 0V | 00:00:00 | 00:00:00 | 00:00:00 | |
| ARGUS2 | 2026-09-02 12:20:50 | 27.75399 | -82.60156 | 300° | 55km/h | 22406m | 4.0m/s | -57.5°C | 0% | 0hPa | 0V | 00:00:00 | 00:00:00 | 00:00:00 | |
| ARGUS2 | 2026-09-02 12:20:30 | 27.75315 | -82.59859 | 302° | 62km/h | 22298m | 4.3m/s | -57.3°C | 0% | 0hPa | 0V | 00:00:00 | 00:00:00 | 00:00:00 | |
| ARGUS2 | 2026-09-02 12:20:10 | 27.75280 | -82.59574 | 289° | 51km/h | 22195m | 5.0m/s | -57.0°C | 0% | 0hPa | 0V | 00:00:00 | 00:00:00 | 00:00:00 | |
| ARGUS2 | 2026-09-02 12:19:48 | 27.75261 | -82.59278 | 254° | 44km/h | 22086m | 5.2m/s | -57.3°C | 0% | 0hPa | 0V | 00:00:00 | 00:00:00 | 00:00:00 | |
| ARGUS2 | 2026-09-02 12:19:28 | 27.75290 | -82.58959 | 249° | 46km/h | 21982m | 3.0m/s | -57.4°C | 0% | 0hPa | 0V | 00:00:00 | 00:00:00 | 00:00:00 | |
| ARGUS2 | 2026-09-02 12:19:08 | 27.75340 | -82.58645 | 276° | 68km/h | 21871m | 5.1m/s | -58.0°C | 0% | 0hPa | 0V | 00:00:00 | 00:00:00 | 00:00:00 | |
| ARGUS2 | 2026-09-02 12:18:47 | 27.75358 | -82.58318 | 247° | 49km/h | 21760m | 4.6m/s | -58.2°C | 0% | 0hPa | 0V | 00:00:00 | 00:00:00 | 00:00:00 | |
| ARGUS2 | 2026-09-02 12:18:27 | 27.75438 | -82.57995 | 240° | 62km/h | 21644m | 3.8m/s | -58.0°C | 0% | 0hPa | 0V | 00:00:00 | 00:00:00 | 00:00:00 | |
| ARGUS2 | 2026-09-02 12:18:07 | 27.75573 | -82.57684 | 242° | 66km/h | 21539m | 6.0m/s | -58.1°C | 0% | 0hPa | 0V | 00:00:00 | 00:00:00 | 00:00:00 | |
| ARGUS2 | 2026-09-02 12:17:46 | 27.75695 | -82.57405 | 240° | 55km/h | 21423m | 6.9m/s | -57.7°C | 0% | 0hPa | 0V | 00:00:00 | 00:00:00 | 00:00:00 | |
| ARGUS2 | 2026-09-02 12:17:25 | 27.75782 | -82.57162 | 240° | 71km/h | 21311m | 2.8m/s | -58.4°C | 0% | 0hPa | 0V | 00:00:00 | 00:00:00 | 00:00:00 | |
| ARGUS2 | 2026-09-02 12:17:05 | 27.75875 | -82.56851 | 263° | 64km/h | 21201m | 5.5m/s | -58.5°C | 0% | 0hPa | 0V | 00:00:00 | 00:00:00 | 00:00:00 | |
| ARGUS2 | 2026-09-02 12:16:43 | 27.75988 | -82.56534 | 251° | 47km/h | 21088m | 7.0m/s | -58.5°C | 0% | 0hPa | 0V | 00:00:00 | 00:00:00 | 00:00:00 | |
| ARGUS2 | 2026-09-02 12:16:24 | 27.76108 | -82.56282 | 251° | 57km/h | 20982m | 4.0m/s | -58.5°C | 0% | 0hPa | 0V | 00:00:00 | 00:00:00 | 00:00:00 | |
| ARGUS2 | 2026-09-02 12:16:02 | 27.76206 | -82.56087 | 220° | 27km/h | 20871m | 3.9m/s | -58.7°C | 0% | 0hPa | 0V | 00:00:00 | 00:00:00 | 00:00:00 | |
| ARGUS2 | 2026-09-02 12:15:42 | 27.76267 | -82.55923 | 261° | 40km/h | 20771m | 5.4m/s | -59.1°C | 0% | 0hPa | 0V | 00:00:00 | 00:00:00 | 00:00:00 | |
| ARGUS2 | 2026-09-02 12:15:21 | 27.76295 | -82.55710 | 253° | 38km/h | 20669m | 6.5m/s | -59.2°C | 0% | 0hPa | 0V | 00:00:00 | 00:00:00 | 00:00:00 | |
| ARGUS2 | 2026-09-02 12:15:01 | 27.76379 | -82.55526 | 252° | 24km/h | 20568m | 6.3m/s | -59.6°C | 0% | 0hPa | 0V | 00:00:00 | 00:00:00 | 00:00:00 | |
| ARGUS2 | 2026-09-02 12:14:40 | 27.76437 | -82.55349 | 227° | 16km/h | 20460m | 5.2m/s | -59.7°C | 0% | 0hPa | 0V | 00:00:00 | 00:00:00 | 00:00:00 | |
| ARGUS2 | 2026-09-02 12:14:20 | 27.76449 | -82.55259 | 293° | 16km/h | 20358m | 5.9m/s | -60.3°C | 0% | 0hPa | 0V | 00:00:00 | 00:00:00 | 00:00:00 | |
| ARGUS2 | 2026-09-02 12:14:00 | 27.76457 | -82.55182 | 145° | 13km/h | 20255m | 6.1m/s | -61.5°C | 0% | 0hPa | 0V | 00:00:00 | 00:00:00 | 00:00:00 | |
| ARGUS2 | 2026-09-02 12:13:39 | 27.76422 | -82.55170 | 354° | 22km/h | 20150m | 5.8m/s | -62.6°C | 0% | 0hPa | 0V | 00:00:00 | 00:00:00 | 00:00:00 | |
| ARGUS2 | 2026-09-02 12:13:19 | 27.76325 | -82.55089 | 326° | 18km/h | 20040m | 5.4m/s | -62.4°C | 0% | 0hPa | 0V | 00:00:00 | 00:00:00 | 00:00:00 | |
| ARGUS2 | 2026-09-02 12:12:58 | 27.76266 | -82.54962 | 283° | 33km/h | 19929m | 4.8m/s | -62.4°C | 0% | 0hPa | 0V | 00:00:00 | 00:00:00 | 00:00:00 | |
| ARGUS2 | 2026-09-02 12:12:38 | 27.76264 | -82.54842 | 266° | 9km/h | 19822m | 5.0m/s | -62.6°C | 0% | 0hPa | 0V | 00:00:00 | 00:00:00 | 00:00:00 | |
| ARGUS2 | 2026-09-02 12:12:17 | 27.76234 | -82.54745 | 313° | 31km/h | 19715m | 5.1m/s | -62.9°C | 0% | 0hPa | 0V | 00:00:00 | 00:00:00 | 00:00:00 | |
| ARGUS2 | 2026-09-02 12:11:56 | 27.76196 | -82.54636 | 288° | 31km/h | 19601m | 6.1m/s | -63.0°C | 0% | 0hPa | 0V | 00:00:00 | 00:00:00 | 00:00:00 | |
| ARGUS2 | 2026-09-02 12:11:36 | 27.76163 | -82.54471 | 270° | 33km/h | 19493m | 6.7m/s | -62.6°C | 0% | 0hPa | 0V | 00:00:00 | 00:00:00 | 00:00:00 | |
| ARGUS2 | 2026-09-02 12:11:16 | 27.76130 | -82.54272 | 301° | 44km/h | 19376m | 5.2m/s | -62.8°C | 0% | 0hPa | 0V | 00:00:00 | 00:00:00 | 00:00:00 | |
| ARGUS2 | 2026-09-02 12:10:54 | 27.76150 | -82.54043 | 234° | 35km/h | 19262m | 5.8m/s | -63.1°C | 0% | 0hPa | 0V | 00:00:00 | 00:00:00 | 00:00:00 | |
| ARGUS2 | 2026-09-02 12:10:34 | 27.76238 | -82.53884 | 239° | 38km/h | 19158m | 6.8m/s | -64.2°C | 0% | 0hPa | 0V | 00:00:00 | 00:00:00 | 00:00:00 | |
| ARGUS2 | 2026-09-02 12:09:53 | 27.76355 | -82.53641 | 276° | 24km/h | 18949m | 6.1m/s | -63.9°C | 0% | 0hPa | 0V | 00:00:00 | 00:00:00 | 00:00:00 | |
| ARGUS2 | 2026-09-02 12:09:32 | 27.76376 | -82.53451 | 253° | 33km/h | 18843m | 4.4m/s | -63.6°C | 0% | 0hPa | 0V | 00:00:00 | 00:00:00 | 00:00:00 | |
| ARGUS2 | 2026-09-02 12:09:12 | 27.76398 | -82.53220 | 262° | 68km/h | 18746m | 4.7m/s | -64.3°C | 0% | 0hPa | 0V | 00:00:00 | 00:00:00 | 00:00:00 | |
| ARGUS2 | 2026-09-02 12:08:52 | 27.76478 | -82.52956 | 243° | 38km/h | 18648m | 4.7m/s | -65.2°C | 0% | 0hPa | 0V | 00:00:00 | 00:00:00 | 00:00:00 | |
| ARGUS2 | 2026-09-02 12:08:31 | 27.76550 | -82.52766 | 257° | 35km/h | 18556m | 4.5m/s | -65.5°C | 0% | 0hPa | 0V | 00:00:00 | 00:00:00 | 00:00:00 | |
| ARGUS2 | 2026-09-02 12:08:11 | 27.76602 | -82.52595 | 241° | 44km/h | 18454m | 4.4m/s | -65.9°C | 0% | 0hPa | 0V | 00:00:00 | 00:00:00 | 00:00:00 | |
| ARGUS2 | 2026-09-02 12:07:50 | 27.76678 | -82.52390 | 248° | 44km/h | 18352m | 5.3m/s | -65.3°C | 0% | 0hPa | 0V | 00:00:00 | 00:00:00 | 00:00:00 | |
| ARGUS2 | 2026-09-02 12:07:30 | 27.76798 | -82.52137 | 232° | 46km/h | 18246m | 5.9m/s | -65.0°C | 0% | 0hPa | 0V | 00:00:00 | 00:00:00 | 00:00:00 | |
| ARGUS2 | 2026-09-02 12:07:09 | 27.76915 | -82.51906 | 238° | 49km/h | 18147m | 3.4m/s | -64.7°C | 0% | 0hPa | 0V | 00:00:00 | 00:00:00 | 00:00:00 | |
| ARGUS2 | 2026-09-02 12:06:49 | 27.77011 | -82.51700 | 246° | 42km/h | 18041m | 4.9m/s | -64.8°C | 0% | 0hPa | 0V | 00:00:00 | 00:00:00 | 00:00:00 | |
| ARGUS2 | 2026-09-02 12:06:28 | 27.77100 | -82.51498 | 237° | 33km/h | 17943m | 3.6m/s | -65.6°C | 0% | 0hPa | 0V | 00:00:00 | 00:00:00 | 00:00:00 | |
| ARGUS2 | 2026-09-02 12:06:08 | 27.77219 | -82.51279 | 235° | 47km/h | 17841m | 5.0m/s | -65.8°C | 0% | 0hPa | 0V | 00:00:00 | 00:00:00 | 00:00:00 | |
| ARGUS2 | 2026-09-02 12:05:46 | 27.77310 | -82.51099 | 231° | 35km/h | 17739m | 5.1m/s | -65.8°C | 0% | 0hPa | 0V | 00:00:00 | 00:00:00 | 00:00:00 | |
| ARGUS2 | 2026-09-02 12:05:26 | 27.77367 | -82.50977 | 235° | 9km/h | 17644m | 3.5m/s | -66.5°C | 0% | 0hPa | 0V | 00:00:00 | 00:00:00 | 00:00:00 | |
| ARGUS2 | 2026-09-02 12:05:05 | 27.77393 | -82.50880 | 276° | 18km/h | 17544m | 4.4m/s | -66.7°C | 0% | 0hPa | 0V | 00:00:00 | 00:00:00 | 00:00:00 | |
| ARGUS2 | 2026-09-02 12:04:45 | 27.77405 | -82.50780 | 240° | 31km/h | 17452m | 5.3m/s | -66.7°C | 0% | 0hPa | 0V | 00:00:00 | 00:00:00 | 00:00:00 | |
| ARGUS2 | 2026-09-02 12:04:24 | 27.77434 | -82.50630 | 276° | 31km/h | 17349m | 3.8m/s | -65.9°C | 0% | 0hPa | 0V | 00:00:00 | 00:00:00 | 00:00:00 | |
| ARGUS2 | 2026-09-02 12:03:44 | 27.77568 | -82.50216 | 229° | 42km/h | 17151m | 6.0m/s | -67.8°C | 0% | 0hPa | 0V | 00:00:00 | 00:00:00 | 00:00:00 | |
| ARGUS2 | 2026-09-02 12:03:03 | 27.77844 | -82.49827 | 240° | 42km/h | 16958m | 4.2m/s | -67.2°C | 0% | 0hPa | 0V | 00:00:00 | 00:00:00 | 00:00:00 | |
| ARGUS2 | 2026-09-02 12:02:42 | 27.77951 | -82.49676 | 234° | 33km/h | 16865m | 3.7m/s | -67.0°C | 0% | 0hPa | 0V | 00:00:00 | 00:00:00 | 00:00:00 | |
| ARGUS2 | 2026-09-02 12:02:22 | 27.78001 | -82.49530 | 263° | 16km/h | 16764m | 3.7m/s | -67.8°C | 0% | 0hPa | 0V | 00:00:00 | 00:00:00 | 00:00:00 | |
| ARGUS2 | 2026-09-02 12:02:01 | 27.78029 | -82.49401 | 245° | 24km/h | 16672m | 5.1m/s | -68.1°C | 0% | 0hPa | 0V | 00:00:00 | 00:00:00 | 00:00:00 | |
| ARGUS2 | 2026-09-02 12:01:41 | 27.78064 | -82.49250 | 262° | 22km/h | 16575m | 5.5m/s | -68.1°C | 0% | 0hPa | 0V | 00:00:00 | 00:00:00 | 00:00:00 | |
| ARGUS2 | 2026-09-02 12:01:21 | 27.78109 | -82.49104 | 254° | 31km/h | 16484m | 4.7m/s | -67.7°C | 0% | 0hPa | 0V | 00:00:00 | 00:00:00 | 00:00:00 | |
| ARGUS2 | 2026-09-02 12:01:00 | 27.78176 | -82.48960 | 251° | 31km/h | 16384m | 3.9m/s | -67.3°C | 0% | 0hPa | 0V | 00:00:00 | 00:00:00 | 00:00:00 | |
| ARGUS2 | 2026-09-02 12:00:39 | 27.78259 | -82.48837 | 245° | 27km/h | 16289m | 4.8m/s | -67.6°C | 0% | 0hPa | 0V | 00:00:00 | 00:00:00 | 00:00:00 | |
| ARGUS2 | 2026-09-02 12:00:19 | 27.78269 | -82.48719 | 306° | 29km/h | 16191m | 5.2m/s | -67.9°C | 0% | 0hPa | 0V | 00:00:00 | 00:00:00 | 00:00:00 | |
| ARGUS2 | 2026-09-02 11:59:58 | 27.78225 | -82.48568 | 293° | 26km/h | 16093m | 4.2m/s | -67.6°C | 0% | 0hPa | 0V | 00:00:00 | 00:00:00 | 00:00:00 | |
| ARGUS2 | 2026-09-02 11:59:38 | 27.78198 | -82.48393 | 273° | 35km/h | 16005m | 5.0m/s | -67.7°C | 0% | 0hPa | 0V | 00:00:00 | 00:00:00 | 00:00:00 | |
| ARGUS2 | 2026-09-02 11:59:16 | 27.78196 | -82.48227 | 290° | 24km/h | 15908m | 3.6m/s | -67.8°C | 0% | 0hPa | 0V | 00:00:00 | 00:00:00 | 00:00:00 | |
| ARGUS2 | 2026-09-02 11:58:56 | 27.78214 | -82.48110 | 250° | 20km/h | 15817m | 3.1m/s | -68.6°C | 0% | 0hPa | 0V | 00:00:00 | 00:00:00 | 00:00:00 | |
| ARGUS2 | 2026-09-02 11:58:36 | 27.78229 | -82.47979 | 257° | 22km/h | 15721m | 5.2m/s | -69.8°C | 0% | 0hPa | 0V | 00:00:00 | 00:00:00 | 00:00:00 | |
| ARGUS2 | 2026-09-02 11:58:15 | 27.78250 | -82.47847 | 242° | 26km/h | 15629m | 5.8m/s | -70.1°C | 0% | 0hPa | 0V | 00:00:00 | 00:00:00 | 00:00:00 | |
| ARGUS2 | 2026-09-02 11:57:55 | 27.78320 | -82.47738 | 221° | 22km/h | 15530m | 4.6m/s | -69.9°C | 0% | 0hPa | 0V | 00:00:00 | 00:00:00 | 00:00:00 | |
| ARGUS2 | 2026-09-02 11:57:34 | 27.78371 | -82.47690 | 202° | 18km/h | 15435m | 5.1m/s | -69.3°C | 0% | 0hPa | 0V | 00:00:00 | 00:00:00 | 00:00:00 | |
| ARGUS2 | 2026-09-02 11:56:54 | 27.78456 | -82.47626 | 37° | 4km/h | 15233m | 5.4m/s | -68.9°C | 0% | 0hPa | 0V | 00:00:00 | 00:00:00 | 00:00:00 | |
| ARGUS2 | 2026-09-02 11:56:33 | 27.78470 | -82.47619 | 313° | 4km/h | 15135m | 4.4m/s | -69.3°C | 0% | 0hPa | 0V | 00:00:00 | 00:00:00 | 00:00:00 | |
| ARGUS2 | 2026-09-02 11:56:13 | 27.78451 | -82.47607 | 17° | 13km/h | 15042m | 3.9m/s | -70.0°C | 0% | 0hPa | 0V | 00:00:00 | 00:00:00 | 00:00:00 | |
| ARGUS2 | 2026-09-02 11:55:52 | 27.78423 | -82.47649 | 39° | 18km/h | 14946m | 4.2m/s | -70.4°C | 0% | 0hPa | 0V | 00:00:00 | 00:00:00 | 00:00:00 | |
| ARGUS2 | 2026-09-02 11:55:31 | 27.78359 | -82.47683 | 42° | 16km/h | 14849m | 3.7m/s | -69.6°C | 0% | 0hPa | 0V | 00:00:00 | 00:00:00 | 00:00:00 | |
| ARGUS2 | 2026-09-02 11:55:11 | 27.78277 | -82.47721 | 53° | 24km/h | 14756m | 5.0m/s | -68.9°C | 0% | 0hPa | 0V | 00:00:00 | 00:00:00 | 00:00:00 | |
| ARGUS2 | 2026-09-02 11:54:50 | 27.78168 | -82.47771 | 18° | 16km/h | 14659m | 6.3m/s | -68.2°C | 0% | 0hPa | 0V | 00:00:00 | 00:00:00 | 00:00:00 | |
| ARGUS2 | 2026-09-02 11:54:29 | 27.78033 | -82.47811 | 355° | 42km/h | 14565m | 4.9m/s | -67.6°C | 0% | 0hPa | 0V | 00:00:00 | 00:00:00 | 00:00:00 | |
| ARGUS2 | 2026-09-02 11:54:09 | 27.77850 | -82.47856 | 29° | 31km/h | 14433m | 6.2m/s | -66.8°C | 0% | 0hPa | 0V | 00:00:00 | 00:00:00 | 00:00:00 | |
| ARGUS2 | 2026-09-02 11:53:48 | 27.77631 | -82.47860 | 351° | 42km/h | 14321m | 4.8m/s | -65.9°C | 0% | 0hPa | 0V | 00:00:00 | 00:00:00 | 00:00:00 | |
| ARGUS2 | 2026-09-02 11:53:28 | 27.77371 | -82.47859 | 5° | 49km/h | 14206m | 3.5m/s | -65.3°C | 0% | 0hPa | 0V | 00:00:00 | 00:00:00 | 00:00:00 | |
| ARGUS2 | 2026-09-02 11:53:07 | 27.77112 | -82.47829 | 353° | 49km/h | 14114m | 4.3m/s | -64.7°C | 0% | 0hPa | 0V | 00:00:00 | 00:00:00 | 00:00:00 | |
| ARGUS2 | 2026-09-02 11:52:47 | 27.76869 | -82.47800 | 11° | 47km/h | 14023m | 3.9m/s | -64.0°C | 0% | 0hPa | 0V | 00:00:00 | 00:00:00 | 00:00:00 | |
| ARGUS2 | 2026-09-02 11:52:27 | 27.76645 | -82.47785 | 343° | 57km/h | 13934m | 3.5m/s | -63.3°C | 0% | 0hPa | 0V | 00:00:00 | 00:00:00 | 00:00:00 | |
| ARGUS2 | 2026-09-02 11:52:06 | 27.76442 | -82.47771 | 2° | 29km/h | 13825m | 4.9m/s | -62.4°C | 0% | 0hPa | 0V | 00:00:00 | 00:00:00 | 00:00:00 | |
| ARGUS2 | 2026-09-02 11:51:46 | 27.76272 | -82.47762 | 355° | 29km/h | 13743m | 3.9m/s | -61.8°C | 0% | 0hPa | 0V | 00:00:00 | 00:00:00 | 00:00:00 | |
| ARGUS2 | 2026-09-02 11:51:25 | 27.76094 | -82.47736 | 351° | 33km/h | 13657m | 4.3m/s | -61.1°C | 0% | 0hPa | 0V | 00:00:00 | 00:00:00 | 00:00:00 | |
| ARGUS2 | 2026-09-02 11:51:05 | 27.75923 | -82.47714 | 358° | 40km/h | 13573m | 4.9m/s | -60.4°C | 0% | 0hPa | 0V | 00:00:00 | 00:00:00 | 00:00:00 | |
| ARGUS2 | 2026-09-02 11:50:44 | 27.75741 | -82.47675 | 351° | 33km/h | 13483m | 5.2m/s | -59.7°C | 0% | 0hPa | 0V | 00:00:00 | 00:00:00 | 00:00:00 | |
| ARGUS2 | 2026-09-02 11:50:23 | 27.75543 | -82.47650 | 353° | 29km/h | 13396m | 3.1m/s | -59.1°C | 0% | 0hPa | 0V | 00:00:00 | 00:00:00 | 00:00:00 | |
| ARGUS2 | 2026-09-02 11:50:02 | 27.75350 | -82.47610 | 348° | 35km/h | 13308m | 3.1m/s | -58.4°C | 0% | 0hPa | 0V | 00:00:00 | 00:00:00 | 00:00:00 | |
| ARGUS2 | 2026-09-02 11:49:42 | 27.75144 | -82.47564 | 341° | 40km/h | 13217m | 4.5m/s | -57.6°C | 0% | 0hPa | 0V | 00:00:00 | 00:00:00 | 00:00:00 | |
| ARGUS2 | 2026-09-02 11:49:21 | 27.74950 | -82.47507 | 353° | 40km/h | 13131m | 5.1m/s | -57.0°C | 0% | 0hPa | 0V | 00:00:00 | 00:00:00 | 00:00:00 | |
| ARGUS2 | 2026-09-02 11:49:01 | 27.74747 | -82.47462 | 357° | 38km/h | 13040m | 4.3m/s | -56.3°C | 0% | 0hPa | 0V | 00:00:00 | 00:00:00 | 00:00:00 | |
| ARGUS2 | 2026-09-02 11:48:41 | 27.74558 | -82.47428 | 330° | 38km/h | 12950m | 4.2m/s | -55.6°C | 0% | 0hPa | 0V | 00:00:00 | 00:00:00 | 00:00:00 | |
| ARGUS2 | 2026-09-02 11:48:20 | 27.74357 | -82.47388 | 354° | 42km/h | 12861m | 4.8m/s | -54.7°C | 0% | 0hPa | 0V | 00:00:00 | 00:00:00 | 00:00:00 | |
| ARGUS2 | 2026-09-02 11:47:59 | 27.74173 | -82.47357 | 360° | 37km/h | 12771m | 5.0m/s | -54.1°C | 0% | 0hPa | 0V | 00:00:00 | 00:00:00 | 00:00:00 | |
| ARGUS2 | 2026-09-02 11:47:18 | 27.73827 | -82.47291 | 341° | 33km/h | 12589m | 3.4m/s | -52.5°C | 0% | 0hPa | 0V | 00:00:00 | 00:00:00 | 00:00:00 | |
| ARGUS2 | 2026-09-02 11:46:58 | 27.73666 | -82.47266 | 355° | 31km/h | 12493m | 4.0m/s | -51.8°C | 0% | 0hPa | 0V | 00:00:00 | 00:00:00 | 00:00:00 | |
| ARGUS2 | 2026-09-02 11:46:38 | 27.73508 | -82.47256 | 6° | 35km/h | 12398m | 3.9m/s | -51.0°C | 0% | 0hPa | 0V | 00:00:00 | 00:00:00 | 00:00:00 | |
| ARGUS2 | 2026-09-02 11:46:17 | 27.73336 | -82.47240 | 352° | 42km/h | 12303m | 5.2m/s | -50.2°C | 0% | 0hPa | 0V | 00:00:00 | 00:00:00 | 00:00:00 | |
| ARGUS2 | 2026-09-02 11:45:57 | 27.73158 | -82.47230 | 8° | 38km/h | 12206m | 4.8m/s | -49.3°C | 0% | 0hPa | 0V | 00:00:00 | 00:00:00 | 00:00:00 | |
| ARGUS2 | 2026-09-02 11:45:36 | 27.72968 | -82.47214 | 360° | 40km/h | 12105m | 4.1m/s | -48.6°C | 0% | 0hPa | 0V | 00:00:00 | 00:00:00 | 00:00:00 | |
| ARGUS2 | 2026-09-02 11:45:14 | 27.72757 | -82.47192 | 350° | 46km/h | 12007m | 3.8m/s | -47.8°C | 0% | 0hPa | 0V | 00:00:00 | 00:00:00 | 00:00:00 | |
| ARGUS2 | 2026-09-02 11:44:54 | 27.72573 | -82.47182 | 354° | 37km/h | 11913m | 4.9m/s | -47.0°C | 0% | 0hPa | 0V | 00:00:00 | 00:00:00 | 00:00:00 | |
| ARGUS2 | 2026-09-02 11:44:33 | 27.72393 | -82.47173 | 346° | 27km/h | 11818m | 5.0m/s | -46.3°C | 0% | 0hPa | 0V | 00:00:00 | 00:00:00 | 00:00:00 | |
| ARGUS2 | 2026-09-02 11:44:14 | 27.72242 | -82.47184 | 346° | 37km/h | 11725m | 3.7m/s | -45.5°C | 0% | 0hPa | 0V | 00:00:00 | 00:00:00 | 00:00:00 | |
| ARGUS2 | 2026-09-02 11:43:52 | 27.72091 | -82.47190 | 354° | 27km/h | 11626m | 5.2m/s | -44.6°C | 0% | 0hPa | 0V | 00:00:00 | 00:00:00 | 00:00:00 | |
| ARGUS2 | 2026-09-02 11:43:32 | 27.71960 | -82.47194 | 27° | 18km/h | 11530m | 4.2m/s | -43.8°C | 0% | 0hPa | 0V | 00:00:00 | 00:00:00 | 00:00:00 | |
| ARGUS2 | 2026-09-02 11:43:12 | 27.71829 | -82.47186 | 1° | 24km/h | 11428m | 5.8m/s | -43.0°C | 0% | 0hPa | 0V | 00:00:00 | 00:00:00 | 00:00:00 | |
| ARGUS2 | 2026-09-02 11:42:51 | 27.71726 | -82.47178 | 24° | 20km/h | 11336m | 4.4m/s | -42.2°C | 0% | 0hPa | 0V | 00:00:00 | 00:00:00 | 00:00:00 | |
| ARGUS2 | 2026-09-02 11:42:31 | 27.71636 | -82.47173 | 3° | 24km/h | 11241m | 3.9m/s | -41.5°C | 0% | 0hPa | 0V | 00:00:00 | 00:00:00 | 00:00:00 | |
| ARGUS2 | 2026-09-02 11:42:10 | 27.71557 | -82.47132 | 344° | 15km/h | 11153m | 4.6m/s | -40.8°C | 0% | 0hPa | 0V | 00:00:00 | 00:00:00 | 00:00:00 | |
| ARGUS2 | 2026-09-02 11:41:49 | 27.71484 | -82.47092 | 345° | 15km/h | 11060m | 3.6m/s | -40.0°C | 0% | 0hPa | 0V | 00:00:00 | 00:00:00 | 00:00:00 | |
| ARGUS2 | 2026-09-02 11:41:29 | 27.71408 | -82.47049 | 344° | 16km/h | 10971m | 4.8m/s | -39.3°C | 0% | 0hPa | 0V | 00:00:00 | 00:00:00 | 00:00:00 | |
| ARGUS2 | 2026-09-02 11:41:09 | 27.71314 | -82.46995 | 339° | 18km/h | 10877m | 3.8m/s | -38.6°C | 0% | 0hPa | 0V | 00:00:00 | 00:00:00 | 00:00:00 | |
| ARGUS2 | 2026-09-02 11:40:48 | 27.71226 | -82.46909 | 313° | 29km/h | 10791m | 5.0m/s | -38.1°C | 0% | 0hPa | 0V | 00:00:00 | 00:00:00 | 00:00:00 | |
| ARGUS2 | 2026-09-02 11:40:28 | 27.71130 | -82.46834 | 320° | 22km/h | 10700m | 4.1m/s | -37.2°C | 0% | 0hPa | 0V | 00:00:00 | 00:00:00 | 00:00:00 | |
| ARGUS2 | 2026-09-02 11:40:07 | 27.71039 | -82.46767 | 298° | 16km/h | 10612m | 4.2m/s | -36.7°C | 0% | 0hPa | 0V | 00:00:00 | 00:00:00 | 00:00:00 | |
| ARGUS2 | 2026-09-02 11:39:46 | 27.70952 | -82.46745 | 343° | 20km/h | 10529m | 5.0m/s | -36.2°C | 0% | 0hPa | 0V | 00:00:00 | 00:00:00 | 00:00:00 | |
| ARGUS2 | 2026-09-02 11:39:25 | 27.70860 | -82.46731 | 8° | 16km/h | 10446m | 4.9m/s | -35.5°C | 0% | 0hPa | 0V | 00:00:00 | 00:00:00 | 00:00:00 | |
| ARGUS2 | 2026-09-02 11:38:19 | 27.70618 | -82.46619 | 350° | 13km/h | 10182m | 4.5m/s | -33.9°C | 0% | 0hPa | 0V | 00:00:00 | 00:00:00 | 00:00:00 | |
| ARGUS2 | 2026-09-02 11:37:58 | 27.70538 | -82.46603 | 355° | 16km/h | 10099m | 3.1m/s | -33.4°C | 0% | 0hPa | 0V | 00:00:00 | 00:00:00 | 00:00:00 | |
| ARGUS2 | 2026-09-02 11:37:37 | 27.70469 | -82.46606 | 358° | 11km/h | 10017m | 4.4m/s | -32.7°C | 0% | 0hPa | 0V | 00:00:00 | 00:00:00 | 00:00:00 | |
| ARGUS2 | 2026-09-02 11:37:17 | 27.70395 | -82.46613 | 11° | 7km/h | 9938m | 4.1m/s | -32.0°C | 0% | 0hPa | 0V | 00:00:00 | 00:00:00 | 00:00:00 | |
| ARGUS2 | 2026-09-02 11:36:57 | 27.70322 | -82.46622 | 344° | 13km/h | 9854m | 3.3m/s | -31.4°C | 0% | 0hPa | 0V | 00:00:00 | 00:00:00 | 00:00:00 | |
| ARGUS2 | 2026-09-02 11:36:36 | 27.70264 | -82.46645 | 59° | 16km/h | 9775m | 4.5m/s | -30.9°C | 0% | 0hPa | 0V | 00:00:00 | 00:00:00 | 00:00:00 | |
| ARGUS2 | 2026-09-02 11:36:16 | 27.70218 | -82.46677 | 6° | 7km/h | 9689m | 4.2m/s | -30.2°C | 0% | 0hPa | 0V | 00:00:00 | 00:00:00 | 00:00:00 | |
| ARGUS2 | 2026-09-02 11:35:55 | 27.70183 | -82.46701 | 125° | 7km/h | 9608m | 3.5m/s | -29.8°C | 0% | 0hPa | 0V | 00:00:00 | 00:00:00 | 00:00:00 | |
| ARGUS2 | 2026-09-02 11:35:34 | 27.70169 | -82.46737 | 103° | 15km/h | 9524m | 3.8m/s | -29.2°C | 0% | 0hPa | 0V | 00:00:00 | 00:00:00 | 00:00:00 | |
| ARGUS2 | 2026-09-02 11:34:53 | 27.70166 | -82.46817 | 345° | 9km/h | 9356m | 4.1m/s | -27.8°C | 0% | 0hPa | 0V | 00:00:00 | 00:00:00 | 00:00:00 | |
| ARGUS2 | 2026-09-02 11:34:32 | 27.70149 | -82.46836 | 47° | 13km/h | 9267m | 3.9m/s | -27.3°C | 0% | 0hPa | 0V | 00:00:00 | 00:00:00 | 00:00:00 | |
| ARGUS2 | 2026-09-02 11:34:13 | 27.70103 | -82.46848 | 38° | 5km/h | 9183m | 3.8m/s | -26.9°C | 0% | 0hPa | 0V | 00:00:00 | 00:00:00 | 00:00:00 | |
| ARGUS2 | 2026-09-02 11:33:51 | 27.70053 | -82.46844 | 17° | 11km/h | 9093m | 4.6m/s | -26.2°C | 0% | 0hPa | 0V | 00:00:00 | 00:00:00 | 00:00:00 | |
| ARGUS2 | 2026-09-02 11:33:29 | 27.70000 | -82.46820 | 315° | 9km/h | 9001m | 4.9m/s | -25.5°C | 0% | 0hPa | 0V | 00:00:00 | 00:00:00 | 00:00:00 | |
| ARGUS2 | 2026-09-02 11:33:09 | 27.69951 | -82.46773 | 278° | 13km/h | 8913m | 3.2m/s | -24.8°C | 0% | 0hPa | 0V | 00:00:00 | 00:00:00 | 00:00:00 | |
| ARGUS2 | 2026-09-02 11:32:48 | 27.69914 | -82.46709 | 325° | 9km/h | 8825m | 4.8m/s | -24.2°C | 0% | 0hPa | 0V | 00:00:00 | 00:00:00 | 00:00:00 | |
| ARGUS2 | 2026-09-02 11:32:26 | 27.69868 | -82.46665 | 305° | 13km/h | 8743m | 4.2m/s | -23.5°C | 0% | 0hPa | 0V | 00:00:00 | 00:00:00 | 00:00:00 | |
| ARGUS2 | 2026-09-02 11:32:04 | 27.69835 | -82.46596 | 282° | 13km/h | 8649m | 4.1m/s | -23.0°C | 0% | 0hPa | 0V | 00:00:00 | 00:00:00 | 00:00:00 | |
| ARGUS2 | 2026-09-02 11:31:40 | 27.69806 | -82.46494 | 335° | 11km/h | 8559m | 2.8m/s | -22.5°C | 0% | 0hPa | 0V | 00:00:00 | 00:00:00 | 00:00:00 | |
| ARGUS2 | 2026-09-02 11:31:15 | 27.69751 | -82.46393 | 304° | 13km/h | 8458m | 3.5m/s | -21.9°C | 0% | 0hPa | 0V | 00:00:00 | 00:00:00 | 00:00:00 | |
| ARGUS2 | 2026-09-02 11:30:54 | 27.69713 | -82.46303 | 287° | 13km/h | 8373m | 4.6m/s | -21.4°C | 0% | 0hPa | 0V | 00:00:00 | 00:00:00 | 00:00:00 | |
| ARGUS2 | 2026-09-02 11:30:33 | 27.69684 | -82.46199 | 315° | 11km/h | 8277m | 5.6m/s | -20.7°C | 0% | 0hPa | 0V | 00:00:00 | 00:00:00 | 00:00:00 | |
| ARGUS2 | 2026-09-02 11:30:13 | 27.69668 | -82.46123 | 279° | 22km/h | 8184m | 4.6m/s | -20.0°C | 0% | 0hPa | 0V | 00:00:00 | 00:00:00 | 00:00:00 | |
| ARGUS2 | 2026-09-02 11:29:32 | 27.69622 | -82.45959 | 282° | 16km/h | 8020m | 4.3m/s | -18.8°C | 0% | 0hPa | 0V | 00:00:00 | 00:00:00 | 00:00:00 | |
| ARGUS2 | 2026-09-02 11:29:12 | 27.69589 | -82.45879 | 280° | 9km/h | 7937m | 5.8m/s | -18.2°C | 0% | 0hPa | 0V | 00:00:00 | 00:00:00 | 00:00:00 | |
| ARGUS2 | 2026-09-02 11:28:51 | 27.69581 | -82.45805 | 205° | 4km/h | 7841m | 5.1m/s | -17.4°C | 0% | 0hPa | 0V | 00:00:00 | 00:00:00 | 00:00:00 | |
| ARGUS2 | 2026-09-02 11:28:27 | 27.69564 | -82.45769 | 314° | 4km/h | 7746m | 3.8m/s | -16.7°C | 0% | 0hPa | 0V | 00:00:00 | 00:00:00 | 00:00:00 | |
| ARGUS2 | 2026-09-02 11:28:06 | 27.69544 | -82.45734 | 315° | 2km/h | 7663m | 3.2m/s | -16.0°C | 0% | 0hPa | 0V | 00:00:00 | 00:00:00 | 00:00:00 | |
| ARGUS2 | 2026-09-02 11:27:45 | 27.69510 | -82.45705 | 0° | 0km/h | 7584m | 3.3m/s | -16.0°C | 0% | 0hPa | 0V | 00:00:00 | 00:00:00 | 00:00:00 | |
| ARGUS2 | 2026-09-02 11:27:24 | 27.69485 | -82.45674 | 326° | 7km/h | 7502m | 4.3m/s | -15.6°C | 0% | 0hPa | 0V | 00:00:00 | 00:00:00 | 00:00:00 | |
| ARGUS2 | 2026-09-02 11:27:04 | 27.69446 | -82.45638 | 323° | 26km/h | 7410m | 4.6m/s | -15.1°C | 0% | 0hPa | 0V | 00:00:00 | 00:00:00 | 00:00:00 | |
| ARGUS2 | 2026-09-02 11:26:43 | 27.69395 | -82.45582 | 348° | 16km/h | 7325m | 4.2m/s | -15.1°C | 0% | 0hPa | 0V | 00:00:00 | 00:00:00 | 00:00:00 | |
| ARGUS2 | 2026-09-02 11:26:22 | 27.69365 | -82.45521 | 332° | 11km/h | 7237m | 3.1m/s | -14.4°C | 0% | 0hPa | 0V | 00:00:00 | 00:00:00 | 00:00:00 | |
| ARGUS2 | 2026-09-02 11:25:58 | 27.69342 | -82.45444 | 315° | 13km/h | 7136m | 3.5m/s | -13.5°C | 0% | 0hPa | 0V | 00:00:00 | 00:00:00 | 00:00:00 | |
| ARGUS2 | 2026-09-02 11:25:32 | 27.69332 | -82.45345 | 264° | 13km/h | 7023m | 4.6m/s | -12.6°C | 0% | 0hPa | 0V | 00:00:00 | 00:00:00 | 00:00:00 | |
| ARGUS2 | 2026-09-02 11:25:07 | 27.69328 | -82.45264 | 297° | 11km/h | 6918m | 4.2m/s | -11.8°C | 0% | 0hPa | 0V | 00:00:00 | 00:00:00 | 00:00:00 | |
| ARGUS2 | 2026-09-02 11:24:44 | 27.69327 | -82.45199 | 267° | 9km/h | 6814m | 4.9m/s | -11.2°C | 0% | 0hPa | 0V | 00:00:00 | 00:00:00 | 00:00:00 | |
| ARGUS2 | 2026-09-02 11:24:22 | 27.69342 | -82.45158 | 309° | 5km/h | 6690m | 4.3m/s | -10.6°C | 0% | 0hPa | 0V | 00:00:00 | 00:00:00 | 00:00:00 | |
| ARGUS2 | 2026-09-02 11:23:51 | 27.69321 | -82.45086 | 281° | 11km/h | 6578m | 4.6m/s | -9.9°C | 0% | 0hPa | 0V | 00:00:00 | 00:00:00 | 00:00:00 | |
| ARGUS2 | 2026-09-02 11:23:27 | 27.69279 | -82.45000 | 302° | 15km/h | 6476m | 4.3m/s | -9.3°C | 0% | 0hPa | 0V | 00:00:00 | 00:00:00 | 00:00:00 | |
| ARGUS2 | 2026-09-02 11:23:06 | 27.69225 | -82.44912 | 320° | 13km/h | 6379m | 4.1m/s | -8.6°C | 0% | 0hPa | 0V | 00:00:00 | 00:00:00 | 00:00:00 | |
| ARGUS2 | 2026-09-02 11:22:45 | 27.69157 | -82.44819 | 332° | 26km/h | 6265m | 3.9m/s | -8.0°C | 0% | 0hPa | 0V | 00:00:00 | 00:00:00 | 00:00:00 | |
| ARGUS2 | 2026-09-02 11:22:23 | 27.69088 | -82.44704 | 327° | 26km/h | 6160m | 4.8m/s | -7.2°C | 0% | 0hPa | 0V | 00:00:00 | 00:00:00 | 00:00:00 | |
| ARGUS2 | 2026-09-02 11:22:03 | 27.69028 | -82.44576 | 312° | 24km/h | 6067m | 7.4m/s | -6.9°C | 0% | 0hPa | 0V | 00:00:00 | 00:00:00 | 00:00:00 | |
| ARGUS2 | 2026-09-02 11:21:41 | 27.68975 | -82.44470 | 273° | 24km/h | 5958m | 3.9m/s | -6.1°C | 0% | 0hPa | 0V | 00:00:00 | 00:00:00 | 00:00:00 | |
| ARGUS2 | 2026-09-02 11:21:21 | 27.68942 | -82.44350 | 294° | 13km/h | 5871m | 3.1m/s | -5.7°C | 0% | 0hPa | 0V | 00:00:00 | 00:00:00 | 00:00:00 | |
| ARGUS2 | 2026-09-02 11:21:01 | 27.68908 | -82.44231 | 299° | 15km/h | 5781m | 3.4m/s | -5.3°C | 0% | 0hPa | 0V | 00:00:00 | 00:00:00 | 00:00:00 | |
| ARGUS2 | 2026-09-02 11:20:03 | 27.68897 | -82.43909 | 275° | 35km/h | 5546m | 4.4m/s | -4.6°C | 0% | 0hPa | 0V | 00:00:00 | 00:00:00 | 00:00:00 | |
| ARGUS2 | 2026-09-02 11:19:33 | 27.68894 | -82.43693 | 280° | 16km/h | 5408m | 4.7m/s | -3.8°C | 0% | 0hPa | 0V | 00:00:00 | 00:00:00 | 00:00:00 | |
| ARGUS2 | 2026-09-02 11:19:13 | 27.68894 | -82.43568 | 292° | 26km/h | 5322m | 3.1m/s | -3.2°C | 0% | 0hPa | 0V | 00:00:00 | 00:00:00 | 00:00:00 | |
| ARGUS2 | 2026-09-02 11:18:52 | 27.68899 | -82.43439 | 263° | 24km/h | 5246m | 4.6m/s | -2.8°C | 0% | 0hPa | 0V | 00:00:00 | 00:00:00 | 00:00:00 | |
| ARGUS2 | 2026-09-02 11:18:32 | 27.68899 | -82.43306 | 294° | 16km/h | 5165m | 3.0m/s | -2.5°C | 0% | 0hPa | 0V | 00:00:00 | 00:00:00 | 00:00:00 | |
| ARGUS2 | 2026-09-02 11:18:10 | 27.68899 | -82.43180 | 257° | 5km/h | 5083m | 3.6m/s | -2.1°C | 0% | 0hPa | 0V | 00:00:00 | 00:00:00 | 00:00:00 | |
| ARGUS2 | 2026-09-02 11:17:30 | 27.68945 | -82.42956 | 224° | 27km/h | 4859m | 2.8m/s | -0.7°C | 0% | 0hPa | 0V | 00:00:00 | 00:00:00 | 00:00:00 | |
| ARGUS2 | 2026-09-02 11:17:08 | 27.68942 | -82.42834 | 283° | 27km/h | 4748m | 4.9m/s | 0.0°C | 0% | 0hPa | 0V | 00:00:00 | 00:00:00 | 00:00:00 | |
| ARGUS2 | 2026-09-02 11:16:46 | 27.68954 | -82.42695 | 241° | 22km/h | 4656m | 2.9m/s | 0.7°C | 0% | 0hPa | 0V | 00:00:00 | 00:00:00 | 00:00:00 | |
| ARGUS2 | 2026-09-02 11:16:13 | 27.68958 | -82.42516 | 279° | 24km/h | 4498m | 6.3m/s | 1.6°C | 0% | 0hPa | 0V | 00:00:00 | 00:00:00 | 00:00:00 | |
| ARGUS2 | 2026-09-02 11:15:52 | 27.68971 | -82.42435 | 260° | 35km/h | 4390m | 6.2m/s | 2.2°C | 0% | 0hPa | 0V | 00:00:00 | 00:00:00 | 00:00:00 | |
| ARGUS2 | 2026-09-02 11:15:17 | 27.68976 | -82.42245 | 272° | 27km/h | 4197m | 4.6m/s | 3.5°C | 0% | 0hPa | 0V | 00:00:00 | 00:00:00 | 00:00:00 | |
| ARGUS2 | 2026-09-02 11:14:56 | 27.68998 | -82.42142 | 210° | 13km/h | 4090m | 5.8m/s | 4.3°C | 0% | 0hPa | 0V | 00:00:00 | 00:00:00 | 00:00:00 | |
| ARGUS2 | 2026-09-02 11:14:35 | 27.69045 | -82.42048 | 209° | 22km/h | 3991m | 3.2m/s | 5.2°C | 0% | 0hPa | 0V | 00:00:00 | 00:00:00 | 00:00:00 | |
| ARGUS2 | 2026-09-02 11:12:11 | 27.69358 | -82.41630 | 229° | 15km/h | 3210m | 6.3m/s | 9.5°C | 0% | 0hPa | 0V | 00:00:00 | 00:00:00 | 00:00:00 | |
| ARGUS2 | 2026-09-02 11:11:51 | 27.69412 | -82.41593 | 74° | 5km/h | 3102m | 4.2m/s | 9.9°C | 0% | 0hPa | 0V | 00:00:00 | 00:00:00 | 00:00:00 | |
| ARGUS2 | 2026-09-02 11:11:30 | 27.69440 | -82.41546 | 213° | 26km/h | 2983m | 7.1m/s | 10.1°C | 0% | 0hPa | 0V | 00:00:00 | 00:00:00 | 00:00:00 | |
| ARGUS2 | 2026-09-02 11:08:55 | 27.69707 | -82.41236 | 137° | 11km/h | 2113m | 5.6m/s | 14.9°C | 0% | 0hPa | 0V | 00:00:00 | 00:00:00 | 00:00:00 | |
| ARGUS2 | 2026-09-02 11:08:29 | 27.69753 | -82.41216 | 294° | 9km/h | 1962m | 4.3m/s | 15.4°C | 0% | 0hPa | 0V | 00:00:00 | 00:00:00 | 00:00:00 | |
| ARGUS2 | 2026-09-02 11:08:07 | 27.69795 | -82.41124 | 232° | 31km/h | 1843m | 4.5m/s | 16.1°C | 0% | 0hPa | 0V | 00:00:00 | 00:00:00 | 00:00:00 | |
| ARGUS2 | 2026-09-02 11:07:46 | 27.69848 | -82.41037 | 223° | 29km/h | 1720m | 5.9m/s | 16.7°C | 0% | 0hPa | 0V | 00:00:00 | 00:00:00 | 00:00:00 | |
| ARGUS2 | 2026-09-02 11:07:24 | 27.69889 | -82.40963 | 303° | 9km/h | 1590m | 4.9m/s | 17.4°C | 0% | 0hPa | 0V | 00:00:00 | 00:00:00 | 00:00:00 | |
| ARGUS2 | 2026-09-02 11:06:57 | 27.69932 | -82.40860 | 0° | 0km/h | 1440m | 5.8m/s | 18.4°C | 0% | 0hPa | 0V | 00:00:00 | 00:00:00 | 00:00:00 | |
| ARGUS2 | 2026-09-02 11:06:35 | 27.69969 | -82.40800 | 166° | 15km/h | 1318m | 6.0m/s | 19.0°C | 0% | 0hPa | 0V | 00:00:00 | 00:00:00 | 00:00:00 |